<?xml version="1.0" encoding="UTF-8" ?>
<gpx xmlns="http://www.topografix.com/GPX/1/1" version="1.1" creator="RouteGadget GPS Tracking" xmlns:xsi="http://www.w3.org/2001/XMLSchema-instance" xmlns:tp1="http://www.garmin.com/xmlschemas/TrackPointExtension/v1" xsi:schemaLocation="http://www.topografix.com/GPX/1/1 http://www.topografix.com/GPX/1/1/gpx.xsd http://www.garmin.com/xmlschemas/TrackPointExtension/v1 http://www.garmin.com/xmlschemas/TrackPointExtensionv1.xsd">
<trk>
<trkseg><trkpt lat="54.843031" lon="25.458043">
<time>2022-05-17T10:04:43Z</time>
</trkpt>
<trkpt lat="54.843031" lon="25.458043">
<time>2022-05-17T10:04:44Z</time>
</trkpt>
<trkpt lat="54.843013" lon="25.458028">
<time>2022-05-17T10:04:45Z</time>
</trkpt>
<trkpt lat="54.842989" lon="25.45801">
<time>2022-05-17T10:04:46Z</time>
</trkpt>
<trkpt lat="54.842963" lon="25.457996">
<time>2022-05-17T10:04:47Z</time>
</trkpt>
<trkpt lat="54.84294" lon="25.457995">
<time>2022-05-17T10:04:48Z</time>
</trkpt>
<trkpt lat="54.842916" lon="25.458005">
<time>2022-05-17T10:04:49Z</time>
</trkpt>
<trkpt lat="54.842889" lon="25.458026">
<time>2022-05-17T10:04:50Z</time>
</trkpt>
<trkpt lat="54.842857" lon="25.45805">
<time>2022-05-17T10:04:51Z</time>
</trkpt>
<trkpt lat="54.842818" lon="25.458075">
<time>2022-05-17T10:04:52Z</time>
</trkpt>
<trkpt lat="54.842777" lon="25.458097">
<time>2022-05-17T10:04:53Z</time>
</trkpt>
<trkpt lat="54.842732" lon="25.458123">
<time>2022-05-17T10:04:54Z</time>
</trkpt>
<trkpt lat="54.842689" lon="25.458162">
<time>2022-05-17T10:04:55Z</time>
</trkpt>
<trkpt lat="54.842647" lon="25.458215">
<time>2022-05-17T10:04:56Z</time>
</trkpt>
<trkpt lat="54.842603" lon="25.458275">
<time>2022-05-17T10:04:57Z</time>
</trkpt>
<trkpt lat="54.842557" lon="25.458326">
<time>2022-05-17T10:04:58Z</time>
</trkpt>
<trkpt lat="54.842506" lon="25.458371">
<time>2022-05-17T10:04:59Z</time>
</trkpt>
<trkpt lat="54.842455" lon="25.458421">
<time>2022-05-17T10:05:00Z</time>
</trkpt>
<trkpt lat="54.842406" lon="25.458481">
<time>2022-05-17T10:05:01Z</time>
</trkpt>
<trkpt lat="54.842355" lon="25.458555">
<time>2022-05-17T10:05:02Z</time>
</trkpt>
<trkpt lat="54.842304" lon="25.458631">
<time>2022-05-17T10:05:03Z</time>
</trkpt>
<trkpt lat="54.842247" lon="25.458712">
<time>2022-05-17T10:05:04Z</time>
</trkpt>
<trkpt lat="54.84219" lon="25.458788">
<time>2022-05-17T10:05:05Z</time>
</trkpt>
<trkpt lat="54.842131" lon="25.458863">
<time>2022-05-17T10:05:06Z</time>
</trkpt>
<trkpt lat="54.842075" lon="25.458934">
<time>2022-05-17T10:05:07Z</time>
</trkpt>
<trkpt lat="54.842019" lon="25.459003">
<time>2022-05-17T10:05:08Z</time>
</trkpt>
<trkpt lat="54.841964" lon="25.459074">
<time>2022-05-17T10:05:09Z</time>
</trkpt>
<trkpt lat="54.841908" lon="25.459149">
<time>2022-05-17T10:05:10Z</time>
</trkpt>
<trkpt lat="54.841851" lon="25.459224">
<time>2022-05-17T10:05:11Z</time>
</trkpt>
<trkpt lat="54.841793" lon="25.459297">
<time>2022-05-17T10:05:12Z</time>
</trkpt>
<trkpt lat="54.841736" lon="25.459367">
<time>2022-05-17T10:05:13Z</time>
</trkpt>
<trkpt lat="54.841678" lon="25.459435">
<time>2022-05-17T10:05:14Z</time>
</trkpt>
<trkpt lat="54.841621" lon="25.459502">
<time>2022-05-17T10:05:15Z</time>
</trkpt>
<trkpt lat="54.841565" lon="25.459569">
<time>2022-05-17T10:05:16Z</time>
</trkpt>
<trkpt lat="54.841509" lon="25.459635">
<time>2022-05-17T10:05:17Z</time>
</trkpt>
<trkpt lat="54.841452" lon="25.459698">
<time>2022-05-17T10:05:18Z</time>
</trkpt>
<trkpt lat="54.841396" lon="25.459757">
<time>2022-05-17T10:05:19Z</time>
</trkpt>
<trkpt lat="54.841339" lon="25.459815">
<time>2022-05-17T10:05:20Z</time>
</trkpt>
<trkpt lat="54.841282" lon="25.459875">
<time>2022-05-17T10:05:21Z</time>
</trkpt>
<trkpt lat="54.841224" lon="25.459934">
<time>2022-05-17T10:05:22Z</time>
</trkpt>
<trkpt lat="54.841165" lon="25.459994">
<time>2022-05-17T10:05:23Z</time>
</trkpt>
<trkpt lat="54.841105" lon="25.460055">
<time>2022-05-17T10:05:24Z</time>
</trkpt>
<trkpt lat="54.841044" lon="25.460116">
<time>2022-05-17T10:05:25Z</time>
</trkpt>
<trkpt lat="54.840985" lon="25.460174">
<time>2022-05-17T10:05:26Z</time>
</trkpt>
<trkpt lat="54.840927" lon="25.460233">
<time>2022-05-17T10:05:27Z</time>
</trkpt>
<trkpt lat="54.84087" lon="25.460291">
<time>2022-05-17T10:05:28Z</time>
</trkpt>
<trkpt lat="54.840813" lon="25.460356">
<time>2022-05-17T10:05:29Z</time>
</trkpt>
<trkpt lat="54.840757" lon="25.46042">
<time>2022-05-17T10:05:30Z</time>
</trkpt>
<trkpt lat="54.8407" lon="25.460483">
<time>2022-05-17T10:05:31Z</time>
</trkpt>
<trkpt lat="54.840643" lon="25.460545">
<time>2022-05-17T10:05:32Z</time>
</trkpt>
<trkpt lat="54.84059" lon="25.460612">
<time>2022-05-17T10:05:33Z</time>
</trkpt>
<trkpt lat="54.84054" lon="25.460692">
<time>2022-05-17T10:05:34Z</time>
</trkpt>
<trkpt lat="54.840492" lon="25.460802">
<time>2022-05-17T10:05:35Z</time>
</trkpt>
<trkpt lat="54.840445" lon="25.460921">
<time>2022-05-17T10:05:36Z</time>
</trkpt>
<trkpt lat="54.840394" lon="25.461027">
<time>2022-05-17T10:05:37Z</time>
</trkpt>
<trkpt lat="54.840338" lon="25.461099">
<time>2022-05-17T10:05:38Z</time>
</trkpt>
<trkpt lat="54.840275" lon="25.461156">
<time>2022-05-17T10:05:39Z</time>
</trkpt>
<trkpt lat="54.840208" lon="25.461202">
<time>2022-05-17T10:05:40Z</time>
</trkpt>
<trkpt lat="54.840147" lon="25.461218">
<time>2022-05-17T10:05:41Z</time>
</trkpt>
<trkpt lat="54.84009" lon="25.461211">
<time>2022-05-17T10:05:42Z</time>
</trkpt>
<trkpt lat="54.84004" lon="25.461183">
<time>2022-05-17T10:05:43Z</time>
</trkpt>
<trkpt lat="54.83999" lon="25.461155">
<time>2022-05-17T10:05:44Z</time>
</trkpt>
<trkpt lat="54.839942" lon="25.46112">
<time>2022-05-17T10:05:45Z</time>
</trkpt>
<trkpt lat="54.839898" lon="25.461081">
<time>2022-05-17T10:05:46Z</time>
</trkpt>
<trkpt lat="54.839859" lon="25.461036">
<time>2022-05-17T10:05:47Z</time>
</trkpt>
<trkpt lat="54.839823" lon="25.460987">
<time>2022-05-17T10:05:48Z</time>
</trkpt>
<trkpt lat="54.839787" lon="25.460941">
<time>2022-05-17T10:05:49Z</time>
</trkpt>
<trkpt lat="54.839751" lon="25.460896">
<time>2022-05-17T10:05:50Z</time>
</trkpt>
<trkpt lat="54.839719" lon="25.460854">
<time>2022-05-17T10:05:51Z</time>
</trkpt>
<trkpt lat="54.839691" lon="25.460818">
<time>2022-05-17T10:05:52Z</time>
</trkpt>
<trkpt lat="54.839665" lon="25.460792">
<time>2022-05-17T10:05:53Z</time>
</trkpt>
<trkpt lat="54.839638" lon="25.46078">
<time>2022-05-17T10:05:54Z</time>
</trkpt>
<trkpt lat="54.839606" lon="25.460791">
<time>2022-05-17T10:05:55Z</time>
</trkpt>
<trkpt lat="54.839577" lon="25.460814">
<time>2022-05-17T10:05:56Z</time>
</trkpt>
<trkpt lat="54.839555" lon="25.460845">
<time>2022-05-17T10:05:57Z</time>
</trkpt>
<trkpt lat="54.839546" lon="25.460873">
<time>2022-05-17T10:05:58Z</time>
</trkpt>
<trkpt lat="54.839544" lon="25.4609">
<time>2022-05-17T10:05:59Z</time>
</trkpt>
<trkpt lat="54.839542" lon="25.460926">
<time>2022-05-17T10:06:00Z</time>
</trkpt>
<trkpt lat="54.839537" lon="25.460951">
<time>2022-05-17T10:06:01Z</time>
</trkpt>
<trkpt lat="54.839527" lon="25.460976">
<time>2022-05-17T10:06:02Z</time>
</trkpt>
<trkpt lat="54.839517" lon="25.461001">
<time>2022-05-17T10:06:03Z</time>
</trkpt>
<trkpt lat="54.839506" lon="25.461021">
<time>2022-05-17T10:06:04Z</time>
</trkpt>
<trkpt lat="54.839491" lon="25.461032">
<time>2022-05-17T10:06:05Z</time>
</trkpt>
<trkpt lat="54.839468" lon="25.461028">
<time>2022-05-17T10:06:06Z</time>
</trkpt>
<trkpt lat="54.839443" lon="25.461017">
<time>2022-05-17T10:06:07Z</time>
</trkpt>
<trkpt lat="54.839419" lon="25.461005">
<time>2022-05-17T10:06:08Z</time>
</trkpt>
<trkpt lat="54.839399" lon="25.460994">
<time>2022-05-17T10:06:09Z</time>
</trkpt>
<trkpt lat="54.83938" lon="25.460985">
<time>2022-05-17T10:06:10Z</time>
</trkpt>
<trkpt lat="54.839364" lon="25.460978">
<time>2022-05-17T10:06:11Z</time>
</trkpt>
<trkpt lat="54.839349" lon="25.460974">
<time>2022-05-17T10:06:12Z</time>
</trkpt>
<trkpt lat="54.839339" lon="25.460967">
<time>2022-05-17T10:06:13Z</time>
</trkpt>
<trkpt lat="54.839334" lon="25.460957">
<time>2022-05-17T10:06:14Z</time>
</trkpt>
<trkpt lat="54.839334" lon="25.460947">
<time>2022-05-17T10:06:15Z</time>
</trkpt>
<trkpt lat="54.839336" lon="25.460939">
<time>2022-05-17T10:06:16Z</time>
</trkpt>
<trkpt lat="54.839336" lon="25.460934">
<time>2022-05-17T10:06:17Z</time>
</trkpt>
<trkpt lat="54.839334" lon="25.460924">
<time>2022-05-17T10:06:18Z</time>
</trkpt>
<trkpt lat="54.839332" lon="25.460905">
<time>2022-05-17T10:06:19Z</time>
</trkpt>
<trkpt lat="54.839331" lon="25.460884">
<time>2022-05-17T10:06:20Z</time>
</trkpt>
<trkpt lat="54.839329" lon="25.46086">
<time>2022-05-17T10:06:21Z</time>
</trkpt>
<trkpt lat="54.839327" lon="25.46084">
<time>2022-05-17T10:06:22Z</time>
</trkpt>
<trkpt lat="54.839324" lon="25.460818">
<time>2022-05-17T10:06:23Z</time>
</trkpt>
<trkpt lat="54.839319" lon="25.460803">
<time>2022-05-17T10:06:24Z</time>
</trkpt>
<trkpt lat="54.839314" lon="25.460789">
<time>2022-05-17T10:06:25Z</time>
</trkpt>
<trkpt lat="54.839309" lon="25.460768">
<time>2022-05-17T10:06:26Z</time>
</trkpt>
<trkpt lat="54.839305" lon="25.46074">
<time>2022-05-17T10:06:27Z</time>
</trkpt>
<trkpt lat="54.839304" lon="25.460704">
<time>2022-05-17T10:06:28Z</time>
</trkpt>
<trkpt lat="54.839305" lon="25.460668">
<time>2022-05-17T10:06:29Z</time>
</trkpt>
<trkpt lat="54.839307" lon="25.46063">
<time>2022-05-17T10:06:30Z</time>
</trkpt>
<trkpt lat="54.839309" lon="25.460592">
<time>2022-05-17T10:06:31Z</time>
</trkpt>
<trkpt lat="54.839306" lon="25.460556">
<time>2022-05-17T10:06:32Z</time>
</trkpt>
<trkpt lat="54.839299" lon="25.460516">
<time>2022-05-17T10:06:33Z</time>
</trkpt>
<trkpt lat="54.839286" lon="25.460475">
<time>2022-05-17T10:06:34Z</time>
</trkpt>
<trkpt lat="54.839272" lon="25.460433">
<time>2022-05-17T10:06:35Z</time>
</trkpt>
<trkpt lat="54.839256" lon="25.460394">
<time>2022-05-17T10:06:36Z</time>
</trkpt>
<trkpt lat="54.839238" lon="25.46035">
<time>2022-05-17T10:06:37Z</time>
</trkpt>
<trkpt lat="54.83922" lon="25.460298">
<time>2022-05-17T10:06:38Z</time>
</trkpt>
<trkpt lat="54.839201" lon="25.460237">
<time>2022-05-17T10:06:39Z</time>
</trkpt>
<trkpt lat="54.839188" lon="25.460182">
<time>2022-05-17T10:06:40Z</time>
</trkpt>
<trkpt lat="54.839176" lon="25.460133">
<time>2022-05-17T10:06:41Z</time>
</trkpt>
<trkpt lat="54.839168" lon="25.460087">
<time>2022-05-17T10:06:42Z</time>
</trkpt>
<trkpt lat="54.839151" lon="25.460039">
<time>2022-05-17T10:06:43Z</time>
</trkpt>
<trkpt lat="54.839127" lon="25.459991">
<time>2022-05-17T10:06:44Z</time>
</trkpt>
<trkpt lat="54.839095" lon="25.45995">
<time>2022-05-17T10:06:45Z</time>
</trkpt>
<trkpt lat="54.839064" lon="25.459918">
<time>2022-05-17T10:06:46Z</time>
</trkpt>
<trkpt lat="54.839035" lon="25.459897">
<time>2022-05-17T10:06:47Z</time>
</trkpt>
<trkpt lat="54.83901" lon="25.459884">
<time>2022-05-17T10:06:48Z</time>
</trkpt>
<trkpt lat="54.838986" lon="25.459875">
<time>2022-05-17T10:06:49Z</time>
</trkpt>
<trkpt lat="54.838963" lon="25.459868">
<time>2022-05-17T10:06:50Z</time>
</trkpt>
<trkpt lat="54.838941" lon="25.459861">
<time>2022-05-17T10:06:51Z</time>
</trkpt>
<trkpt lat="54.838923" lon="25.45985">
<time>2022-05-17T10:06:52Z</time>
</trkpt>
<trkpt lat="54.838905" lon="25.459836">
<time>2022-05-17T10:06:53Z</time>
</trkpt>
<trkpt lat="54.838886" lon="25.459822">
<time>2022-05-17T10:06:54Z</time>
</trkpt>
<trkpt lat="54.838861" lon="25.4598">
<time>2022-05-17T10:06:55Z</time>
</trkpt>
<trkpt lat="54.838838" lon="25.459778">
<time>2022-05-17T10:06:56Z</time>
</trkpt>
<trkpt lat="54.838814" lon="25.459752">
<time>2022-05-17T10:06:57Z</time>
</trkpt>
<trkpt lat="54.838793" lon="25.459735">
<time>2022-05-17T10:06:58Z</time>
</trkpt>
<trkpt lat="54.838771" lon="25.459721">
<time>2022-05-17T10:06:59Z</time>
</trkpt>
<trkpt lat="54.838747" lon="25.459716">
<time>2022-05-17T10:07:00Z</time>
</trkpt>
<trkpt lat="54.838718" lon="25.459711">
<time>2022-05-17T10:07:01Z</time>
</trkpt>
<trkpt lat="54.838688" lon="25.459703">
<time>2022-05-17T10:07:02Z</time>
</trkpt>
<trkpt lat="54.838656" lon="25.459687">
<time>2022-05-17T10:07:03Z</time>
</trkpt>
<trkpt lat="54.838623" lon="25.459663">
<time>2022-05-17T10:07:04Z</time>
</trkpt>
<trkpt lat="54.838588" lon="25.459633">
<time>2022-05-17T10:07:05Z</time>
</trkpt>
<trkpt lat="54.838551" lon="25.459608">
<time>2022-05-17T10:07:06Z</time>
</trkpt>
<trkpt lat="54.838515" lon="25.459589">
<time>2022-05-17T10:07:07Z</time>
</trkpt>
<trkpt lat="54.838479" lon="25.459579">
<time>2022-05-17T10:07:08Z</time>
</trkpt>
<trkpt lat="54.838446" lon="25.459567">
<time>2022-05-17T10:07:09Z</time>
</trkpt>
<trkpt lat="54.838416" lon="25.459558">
<time>2022-05-17T10:07:10Z</time>
</trkpt>
<trkpt lat="54.838388" lon="25.459555">
<time>2022-05-17T10:07:11Z</time>
</trkpt>
<trkpt lat="54.838356" lon="25.459559">
<time>2022-05-17T10:07:12Z</time>
</trkpt>
<trkpt lat="54.838322" lon="25.459554">
<time>2022-05-17T10:07:13Z</time>
</trkpt>
<trkpt lat="54.838286" lon="25.459542">
<time>2022-05-17T10:07:14Z</time>
</trkpt>
<trkpt lat="54.838254" lon="25.459518">
<time>2022-05-17T10:07:15Z</time>
</trkpt>
<trkpt lat="54.838225" lon="25.459493">
<time>2022-05-17T10:07:16Z</time>
</trkpt>
<trkpt lat="54.8382" lon="25.459466">
<time>2022-05-17T10:07:17Z</time>
</trkpt>
<trkpt lat="54.838179" lon="25.459439">
<time>2022-05-17T10:07:18Z</time>
</trkpt>
<trkpt lat="54.838158" lon="25.459407">
<time>2022-05-17T10:07:19Z</time>
</trkpt>
<trkpt lat="54.838138" lon="25.459368">
<time>2022-05-17T10:07:20Z</time>
</trkpt>
<trkpt lat="54.838119" lon="25.459324">
<time>2022-05-17T10:07:21Z</time>
</trkpt>
<trkpt lat="54.838102" lon="25.459279">
<time>2022-05-17T10:07:22Z</time>
</trkpt>
<trkpt lat="54.838088" lon="25.459239">
<time>2022-05-17T10:07:23Z</time>
</trkpt>
<trkpt lat="54.838072" lon="25.4592">
<time>2022-05-17T10:07:24Z</time>
</trkpt>
<trkpt lat="54.838053" lon="25.459158">
<time>2022-05-17T10:07:25Z</time>
</trkpt>
<trkpt lat="54.838031" lon="25.459112">
<time>2022-05-17T10:07:26Z</time>
</trkpt>
<trkpt lat="54.838005" lon="25.45906">
<time>2022-05-17T10:07:27Z</time>
</trkpt>
<trkpt lat="54.837981" lon="25.459012">
<time>2022-05-17T10:07:28Z</time>
</trkpt>
<trkpt lat="54.837956" lon="25.458966">
<time>2022-05-17T10:07:29Z</time>
</trkpt>
<trkpt lat="54.837928" lon="25.458926">
<time>2022-05-17T10:07:30Z</time>
</trkpt>
<trkpt lat="54.837898" lon="25.458888">
<time>2022-05-17T10:07:31Z</time>
</trkpt>
<trkpt lat="54.837872" lon="25.458854">
<time>2022-05-17T10:07:32Z</time>
</trkpt>
<trkpt lat="54.837849" lon="25.458826">
<time>2022-05-17T10:07:33Z</time>
</trkpt>
<trkpt lat="54.837827" lon="25.458798">
<time>2022-05-17T10:07:34Z</time>
</trkpt>
<trkpt lat="54.837798" lon="25.458771">
<time>2022-05-17T10:07:35Z</time>
</trkpt>
<trkpt lat="54.837762" lon="25.458735">
<time>2022-05-17T10:07:36Z</time>
</trkpt>
<trkpt lat="54.837724" lon="25.458696">
<time>2022-05-17T10:07:37Z</time>
</trkpt>
<trkpt lat="54.837688" lon="25.458651">
<time>2022-05-17T10:07:38Z</time>
</trkpt>
<trkpt lat="54.837657" lon="25.458606">
<time>2022-05-17T10:07:39Z</time>
</trkpt>
<trkpt lat="54.837623" lon="25.458568">
<time>2022-05-17T10:07:40Z</time>
</trkpt>
<trkpt lat="54.837592" lon="25.458536">
<time>2022-05-17T10:07:41Z</time>
</trkpt>
<trkpt lat="54.837564" lon="25.458504">
<time>2022-05-17T10:07:42Z</time>
</trkpt>
<trkpt lat="54.837541" lon="25.458465">
<time>2022-05-17T10:07:43Z</time>
</trkpt>
<trkpt lat="54.837521" lon="25.458423">
<time>2022-05-17T10:07:44Z</time>
</trkpt>
<trkpt lat="54.837499" lon="25.458381">
<time>2022-05-17T10:07:45Z</time>
</trkpt>
<trkpt lat="54.837478" lon="25.458348">
<time>2022-05-17T10:07:46Z</time>
</trkpt>
<trkpt lat="54.837456" lon="25.458316">
<time>2022-05-17T10:07:47Z</time>
</trkpt>
<trkpt lat="54.837436" lon="25.458286">
<time>2022-05-17T10:07:48Z</time>
</trkpt>
<trkpt lat="54.837412" lon="25.458254">
<time>2022-05-17T10:07:49Z</time>
</trkpt>
<trkpt lat="54.837385" lon="25.458221">
<time>2022-05-17T10:07:50Z</time>
</trkpt>
<trkpt lat="54.837355" lon="25.458186">
<time>2022-05-17T10:07:51Z</time>
</trkpt>
<trkpt lat="54.837325" lon="25.45815">
<time>2022-05-17T10:07:52Z</time>
</trkpt>
<trkpt lat="54.837297" lon="25.458111">
<time>2022-05-17T10:07:53Z</time>
</trkpt>
<trkpt lat="54.837273" lon="25.458071">
<time>2022-05-17T10:07:54Z</time>
</trkpt>
<trkpt lat="54.837254" lon="25.458033">
<time>2022-05-17T10:07:55Z</time>
</trkpt>
<trkpt lat="54.83724" lon="25.457995">
<time>2022-05-17T10:07:56Z</time>
</trkpt>
<trkpt lat="54.83723" lon="25.457957">
<time>2022-05-17T10:07:57Z</time>
</trkpt>
<trkpt lat="54.837223" lon="25.457919">
<time>2022-05-17T10:07:58Z</time>
</trkpt>
<trkpt lat="54.837213" lon="25.457878">
<time>2022-05-17T10:07:59Z</time>
</trkpt>
<trkpt lat="54.8372" lon="25.457831">
<time>2022-05-17T10:08:00Z</time>
</trkpt>
<trkpt lat="54.837183" lon="25.457777">
<time>2022-05-17T10:08:01Z</time>
</trkpt>
<trkpt lat="54.837169" lon="25.457723">
<time>2022-05-17T10:08:02Z</time>
</trkpt>
<trkpt lat="54.837157" lon="25.457667">
<time>2022-05-17T10:08:03Z</time>
</trkpt>
<trkpt lat="54.837144" lon="25.457615">
<time>2022-05-17T10:08:04Z</time>
</trkpt>
<trkpt lat="54.83713" lon="25.457567">
<time>2022-05-17T10:08:05Z</time>
</trkpt>
<trkpt lat="54.837119" lon="25.457526">
<time>2022-05-17T10:08:06Z</time>
</trkpt>
<trkpt lat="54.837117" lon="25.457501">
<time>2022-05-17T10:08:07Z</time>
</trkpt>
<trkpt lat="54.837117" lon="25.457499">
<time>2022-05-17T10:08:08Z</time>
</trkpt>
<trkpt lat="54.837119" lon="25.457513">
<time>2022-05-17T10:08:09Z</time>
</trkpt>
<trkpt lat="54.83712" lon="25.457531">
<time>2022-05-17T10:08:10Z</time>
</trkpt>
<trkpt lat="54.837127" lon="25.457541">
<time>2022-05-17T10:08:11Z</time>
</trkpt>
<trkpt lat="54.837137" lon="25.457549">
<time>2022-05-17T10:08:12Z</time>
</trkpt>
<trkpt lat="54.837152" lon="25.457556">
<time>2022-05-17T10:08:13Z</time>
</trkpt>
<trkpt lat="54.83717" lon="25.457564">
<time>2022-05-17T10:08:14Z</time>
</trkpt>
<trkpt lat="54.837192" lon="25.457572">
<time>2022-05-17T10:08:15Z</time>
</trkpt>
<trkpt lat="54.837214" lon="25.457577">
<time>2022-05-17T10:08:16Z</time>
</trkpt>
<trkpt lat="54.837239" lon="25.457582">
<time>2022-05-17T10:08:17Z</time>
</trkpt>
<trkpt lat="54.837262" lon="25.45759">
<time>2022-05-17T10:08:18Z</time>
</trkpt>
<trkpt lat="54.837284" lon="25.4576">
<time>2022-05-17T10:08:19Z</time>
</trkpt>
<trkpt lat="54.837307" lon="25.457602">
<time>2022-05-17T10:08:20Z</time>
</trkpt>
<trkpt lat="54.837335" lon="25.457592">
<time>2022-05-17T10:08:21Z</time>
</trkpt>
<trkpt lat="54.83736" lon="25.457576">
<time>2022-05-17T10:08:22Z</time>
</trkpt>
<trkpt lat="54.837381" lon="25.457564">
<time>2022-05-17T10:08:23Z</time>
</trkpt>
<trkpt lat="54.837395" lon="25.457547">
<time>2022-05-17T10:08:24Z</time>
</trkpt>
<trkpt lat="54.83741" lon="25.457524">
<time>2022-05-17T10:08:25Z</time>
</trkpt>
<trkpt lat="54.837423" lon="25.457489">
<time>2022-05-17T10:08:26Z</time>
</trkpt>
<trkpt lat="54.837439" lon="25.457453">
<time>2022-05-17T10:08:27Z</time>
</trkpt>
<trkpt lat="54.837453" lon="25.457415">
<time>2022-05-17T10:08:28Z</time>
</trkpt>
<trkpt lat="54.837464" lon="25.457376">
<time>2022-05-17T10:08:29Z</time>
</trkpt>
<trkpt lat="54.83747" lon="25.457335">
<time>2022-05-17T10:08:30Z</time>
</trkpt>
<trkpt lat="54.83747" lon="25.457298">
<time>2022-05-17T10:08:31Z</time>
</trkpt>
<trkpt lat="54.837467" lon="25.457266">
<time>2022-05-17T10:08:32Z</time>
</trkpt>
<trkpt lat="54.837463" lon="25.457242">
<time>2022-05-17T10:08:33Z</time>
</trkpt>
<trkpt lat="54.837463" lon="25.45722">
<time>2022-05-17T10:08:34Z</time>
</trkpt>
<trkpt lat="54.837468" lon="25.457195">
<time>2022-05-17T10:08:35Z</time>
</trkpt>
<trkpt lat="54.837477" lon="25.457164">
<time>2022-05-17T10:08:36Z</time>
</trkpt>
<trkpt lat="54.837484" lon="25.457127">
<time>2022-05-17T10:08:37Z</time>
</trkpt>
<trkpt lat="54.837485" lon="25.457087">
<time>2022-05-17T10:08:38Z</time>
</trkpt>
<trkpt lat="54.837481" lon="25.457048">
<time>2022-05-17T10:08:39Z</time>
</trkpt>
<trkpt lat="54.837475" lon="25.457008">
<time>2022-05-17T10:08:40Z</time>
</trkpt>
<trkpt lat="54.837475" lon="25.456968">
<time>2022-05-17T10:08:41Z</time>
</trkpt>
<trkpt lat="54.837483" lon="25.456934">
<time>2022-05-17T10:08:42Z</time>
</trkpt>
<trkpt lat="54.837494" lon="25.456905">
<time>2022-05-17T10:08:43Z</time>
</trkpt>
<trkpt lat="54.837506" lon="25.456874">
<time>2022-05-17T10:08:44Z</time>
</trkpt>
<trkpt lat="54.837519" lon="25.456834">
<time>2022-05-17T10:08:45Z</time>
</trkpt>
<trkpt lat="54.837534" lon="25.456796">
<time>2022-05-17T10:08:46Z</time>
</trkpt>
<trkpt lat="54.837551" lon="25.456765">
<time>2022-05-17T10:08:47Z</time>
</trkpt>
<trkpt lat="54.837572" lon="25.45674">
<time>2022-05-17T10:08:48Z</time>
</trkpt>
<trkpt lat="54.837593" lon="25.456715">
<time>2022-05-17T10:08:49Z</time>
</trkpt>
<trkpt lat="54.837613" lon="25.456696">
<time>2022-05-17T10:08:50Z</time>
</trkpt>
<trkpt lat="54.837631" lon="25.45668">
<time>2022-05-17T10:08:51Z</time>
</trkpt>
<trkpt lat="54.837654" lon="25.456663">
<time>2022-05-17T10:08:52Z</time>
</trkpt>
<trkpt lat="54.837692" lon="25.456659">
<time>2022-05-17T10:08:53Z</time>
</trkpt>
<trkpt lat="54.837732" lon="25.456681">
<time>2022-05-17T10:08:54Z</time>
</trkpt>
<trkpt lat="54.837771" lon="25.456726">
<time>2022-05-17T10:08:55Z</time>
</trkpt>
<trkpt lat="54.837799" lon="25.456775">
<time>2022-05-17T10:08:56Z</time>
</trkpt>
<trkpt lat="54.837834" lon="25.456809">
<time>2022-05-17T10:08:57Z</time>
</trkpt>
<trkpt lat="54.837871" lon="25.45683">
<time>2022-05-17T10:08:58Z</time>
</trkpt>
<trkpt lat="54.837908" lon="25.456838">
<time>2022-05-17T10:08:59Z</time>
</trkpt>
<trkpt lat="54.837944" lon="25.456843">
<time>2022-05-17T10:09:00Z</time>
</trkpt>
<trkpt lat="54.837977" lon="25.456852">
<time>2022-05-17T10:09:01Z</time>
</trkpt>
<trkpt lat="54.83801" lon="25.456865">
<time>2022-05-17T10:09:02Z</time>
</trkpt>
<trkpt lat="54.838038" lon="25.456884">
<time>2022-05-17T10:09:03Z</time>
</trkpt>
<trkpt lat="54.838065" lon="25.456902">
<time>2022-05-17T10:09:04Z</time>
</trkpt>
<trkpt lat="54.838087" lon="25.456918">
<time>2022-05-17T10:09:05Z</time>
</trkpt>
<trkpt lat="54.838108" lon="25.456928">
<time>2022-05-17T10:09:06Z</time>
</trkpt>
<trkpt lat="54.838135" lon="25.456933">
<time>2022-05-17T10:09:07Z</time>
</trkpt>
<trkpt lat="54.838163" lon="25.456932">
<time>2022-05-17T10:09:08Z</time>
</trkpt>
<trkpt lat="54.838192" lon="25.456936">
<time>2022-05-17T10:09:09Z</time>
</trkpt>
<trkpt lat="54.83822" lon="25.456942">
<time>2022-05-17T10:09:10Z</time>
</trkpt>
<trkpt lat="54.83825" lon="25.456947">
<time>2022-05-17T10:09:11Z</time>
</trkpt>
<trkpt lat="54.838277" lon="25.456946">
<time>2022-05-17T10:09:12Z</time>
</trkpt>
<trkpt lat="54.838299" lon="25.456942">
<time>2022-05-17T10:09:13Z</time>
</trkpt>
<trkpt lat="54.838322" lon="25.456938">
<time>2022-05-17T10:09:14Z</time>
</trkpt>
<trkpt lat="54.838346" lon="25.456927">
<time>2022-05-17T10:09:15Z</time>
</trkpt>
<trkpt lat="54.838374" lon="25.456909">
<time>2022-05-17T10:09:16Z</time>
</trkpt>
<trkpt lat="54.838404" lon="25.456887">
<time>2022-05-17T10:09:17Z</time>
</trkpt>
<trkpt lat="54.838429" lon="25.456869">
<time>2022-05-17T10:09:18Z</time>
</trkpt>
<trkpt lat="54.838451" lon="25.456853">
<time>2022-05-17T10:09:19Z</time>
</trkpt>
<trkpt lat="54.838468" lon="25.456837">
<time>2022-05-17T10:09:20Z</time>
</trkpt>
<trkpt lat="54.838483" lon="25.456816">
<time>2022-05-17T10:09:21Z</time>
</trkpt>
<trkpt lat="54.83849" lon="25.456789">
<time>2022-05-17T10:09:22Z</time>
</trkpt>
<trkpt lat="54.838494" lon="25.456753">
<time>2022-05-17T10:09:23Z</time>
</trkpt>
<trkpt lat="54.838497" lon="25.456712">
<time>2022-05-17T10:09:24Z</time>
</trkpt>
<trkpt lat="54.838503" lon="25.456666">
<time>2022-05-17T10:09:25Z</time>
</trkpt>
<trkpt lat="54.838511" lon="25.456622">
<time>2022-05-17T10:09:26Z</time>
</trkpt>
<trkpt lat="54.838517" lon="25.45658">
<time>2022-05-17T10:09:27Z</time>
</trkpt>
<trkpt lat="54.838527" lon="25.456546">
<time>2022-05-17T10:09:28Z</time>
</trkpt>
<trkpt lat="54.838537" lon="25.456516">
<time>2022-05-17T10:09:29Z</time>
</trkpt>
<trkpt lat="54.838546" lon="25.456486">
<time>2022-05-17T10:09:30Z</time>
</trkpt>
<trkpt lat="54.83855" lon="25.456456">
<time>2022-05-17T10:09:31Z</time>
</trkpt>
<trkpt lat="54.838553" lon="25.456427">
<time>2022-05-17T10:09:32Z</time>
</trkpt>
<trkpt lat="54.838556" lon="25.456397">
<time>2022-05-17T10:09:33Z</time>
</trkpt>
<trkpt lat="54.838558" lon="25.456362">
<time>2022-05-17T10:09:34Z</time>
</trkpt>
<trkpt lat="54.838557" lon="25.456316">
<time>2022-05-17T10:09:35Z</time>
</trkpt>
<trkpt lat="54.838555" lon="25.456262">
<time>2022-05-17T10:09:36Z</time>
</trkpt>
<trkpt lat="54.838554" lon="25.456201">
<time>2022-05-17T10:09:37Z</time>
</trkpt>
<trkpt lat="54.838552" lon="25.456138">
<time>2022-05-17T10:09:38Z</time>
</trkpt>
<trkpt lat="54.838551" lon="25.456077">
<time>2022-05-17T10:09:39Z</time>
</trkpt>
<trkpt lat="54.838552" lon="25.456019">
<time>2022-05-17T10:09:40Z</time>
</trkpt>
<trkpt lat="54.838551" lon="25.455963">
<time>2022-05-17T10:09:41Z</time>
</trkpt>
<trkpt lat="54.838549" lon="25.455903">
<time>2022-05-17T10:09:42Z</time>
</trkpt>
<trkpt lat="54.838547" lon="25.455838">
<time>2022-05-17T10:09:43Z</time>
</trkpt>
<trkpt lat="54.838544" lon="25.455769">
<time>2022-05-17T10:09:44Z</time>
</trkpt>
<trkpt lat="54.83854" lon="25.455695">
<time>2022-05-17T10:09:45Z</time>
</trkpt>
<trkpt lat="54.838539" lon="25.455623">
<time>2022-05-17T10:09:46Z</time>
</trkpt>
<trkpt lat="54.838538" lon="25.455548">
<time>2022-05-17T10:09:47Z</time>
</trkpt>
<trkpt lat="54.838534" lon="25.455481">
<time>2022-05-17T10:09:48Z</time>
</trkpt>
<trkpt lat="54.838528" lon="25.455419">
<time>2022-05-17T10:09:49Z</time>
</trkpt>
<trkpt lat="54.838524" lon="25.455359">
<time>2022-05-17T10:09:50Z</time>
</trkpt>
<trkpt lat="54.838523" lon="25.455299">
<time>2022-05-17T10:09:51Z</time>
</trkpt>
<trkpt lat="54.838519" lon="25.455237">
<time>2022-05-17T10:09:52Z</time>
</trkpt>
<trkpt lat="54.838516" lon="25.455171">
<time>2022-05-17T10:09:53Z</time>
</trkpt>
<trkpt lat="54.838514" lon="25.455096">
<time>2022-05-17T10:09:54Z</time>
</trkpt>
<trkpt lat="54.838511" lon="25.455013">
<time>2022-05-17T10:09:55Z</time>
</trkpt>
<trkpt lat="54.838507" lon="25.454929">
<time>2022-05-17T10:09:56Z</time>
</trkpt>
<trkpt lat="54.838501" lon="25.454848">
<time>2022-05-17T10:09:57Z</time>
</trkpt>
<trkpt lat="54.838498" lon="25.454771">
<time>2022-05-17T10:09:58Z</time>
</trkpt>
<trkpt lat="54.838497" lon="25.454696">
<time>2022-05-17T10:09:59Z</time>
</trkpt>
<trkpt lat="54.838496" lon="25.454627">
<time>2022-05-17T10:10:00Z</time>
</trkpt>
<trkpt lat="54.838495" lon="25.454558">
<time>2022-05-17T10:10:01Z</time>
</trkpt>
<trkpt lat="54.838495" lon="25.454489">
<time>2022-05-17T10:10:02Z</time>
</trkpt>
<trkpt lat="54.838494" lon="25.454413">
<time>2022-05-17T10:10:03Z</time>
</trkpt>
<trkpt lat="54.838492" lon="25.454338">
<time>2022-05-17T10:10:04Z</time>
</trkpt>
<trkpt lat="54.838494" lon="25.454265">
<time>2022-05-17T10:10:05Z</time>
</trkpt>
<trkpt lat="54.838501" lon="25.454202">
<time>2022-05-17T10:10:06Z</time>
</trkpt>
<trkpt lat="54.838514" lon="25.454142">
<time>2022-05-17T10:10:07Z</time>
</trkpt>
<trkpt lat="54.838531" lon="25.454084">
<time>2022-05-17T10:10:08Z</time>
</trkpt>
<trkpt lat="54.838557" lon="25.454029">
<time>2022-05-17T10:10:09Z</time>
</trkpt>
<trkpt lat="54.838589" lon="25.453988">
<time>2022-05-17T10:10:10Z</time>
</trkpt>
<trkpt lat="54.838623" lon="25.453957">
<time>2022-05-17T10:10:11Z</time>
</trkpt>
<trkpt lat="54.838655" lon="25.453929">
<time>2022-05-17T10:10:12Z</time>
</trkpt>
<trkpt lat="54.838682" lon="25.453899">
<time>2022-05-17T10:10:13Z</time>
</trkpt>
<trkpt lat="54.838705" lon="25.453872">
<time>2022-05-17T10:10:14Z</time>
</trkpt>
<trkpt lat="54.838721" lon="25.45385">
<time>2022-05-17T10:10:15Z</time>
</trkpt>
<trkpt lat="54.838736" lon="25.453827">
<time>2022-05-17T10:10:16Z</time>
</trkpt>
<trkpt lat="54.838747" lon="25.453807">
<time>2022-05-17T10:10:17Z</time>
</trkpt>
<trkpt lat="54.838762" lon="25.453792">
<time>2022-05-17T10:10:18Z</time>
</trkpt>
<trkpt lat="54.83878" lon="25.453785">
<time>2022-05-17T10:10:19Z</time>
</trkpt>
<trkpt lat="54.838804" lon="25.453777">
<time>2022-05-17T10:10:20Z</time>
</trkpt>
<trkpt lat="54.83883" lon="25.453766">
<time>2022-05-17T10:10:21Z</time>
</trkpt>
<trkpt lat="54.838859" lon="25.453751">
<time>2022-05-17T10:10:22Z</time>
</trkpt>
<trkpt lat="54.838887" lon="25.453733">
<time>2022-05-17T10:10:23Z</time>
</trkpt>
<trkpt lat="54.838914" lon="25.453714">
<time>2022-05-17T10:10:24Z</time>
</trkpt>
<trkpt lat="54.838935" lon="25.4537">
<time>2022-05-17T10:10:25Z</time>
</trkpt>
<trkpt lat="54.838953" lon="25.453696">
<time>2022-05-17T10:10:26Z</time>
</trkpt>
<trkpt lat="54.838968" lon="25.453697">
<time>2022-05-17T10:10:27Z</time>
</trkpt>
<trkpt lat="54.838981" lon="25.453697">
<time>2022-05-17T10:10:28Z</time>
</trkpt>
<trkpt lat="54.838995" lon="25.453691">
<time>2022-05-17T10:10:29Z</time>
</trkpt>
<trkpt lat="54.839009" lon="25.453683">
<time>2022-05-17T10:10:30Z</time>
</trkpt>
<trkpt lat="54.839022" lon="25.453672">
<time>2022-05-17T10:10:31Z</time>
</trkpt>
<trkpt lat="54.839032" lon="25.45366">
<time>2022-05-17T10:10:32Z</time>
</trkpt>
<trkpt lat="54.839043" lon="25.453644">
<time>2022-05-17T10:10:33Z</time>
</trkpt>
<trkpt lat="54.839058" lon="25.453623">
<time>2022-05-17T10:10:34Z</time>
</trkpt>
<trkpt lat="54.839075" lon="25.453594">
<time>2022-05-17T10:10:35Z</time>
</trkpt>
<trkpt lat="54.83909" lon="25.453564">
<time>2022-05-17T10:10:36Z</time>
</trkpt>
<trkpt lat="54.839102" lon="25.453541">
<time>2022-05-17T10:10:37Z</time>
</trkpt>
<trkpt lat="54.83911" lon="25.453527">
<time>2022-05-17T10:10:38Z</time>
</trkpt>
<trkpt lat="54.839116" lon="25.453521">
<time>2022-05-17T10:10:39Z</time>
</trkpt>
<trkpt lat="54.839119" lon="25.453518">
<time>2022-05-17T10:10:40Z</time>
</trkpt>
<trkpt lat="54.839123" lon="25.453512">
<time>2022-05-17T10:10:41Z</time>
</trkpt>
<trkpt lat="54.83913" lon="25.453503">
<time>2022-05-17T10:10:42Z</time>
</trkpt>
<trkpt lat="54.839141" lon="25.453489">
<time>2022-05-17T10:10:43Z</time>
</trkpt>
<trkpt lat="54.839156" lon="25.453472">
<time>2022-05-17T10:10:44Z</time>
</trkpt>
<trkpt lat="54.839176" lon="25.453453">
<time>2022-05-17T10:10:45Z</time>
</trkpt>
<trkpt lat="54.839199" lon="25.453431">
<time>2022-05-17T10:10:46Z</time>
</trkpt>
<trkpt lat="54.839224" lon="25.45341">
<time>2022-05-17T10:10:47Z</time>
</trkpt>
<trkpt lat="54.839248" lon="25.453391">
<time>2022-05-17T10:10:48Z</time>
</trkpt>
<trkpt lat="54.839267" lon="25.453372">
<time>2022-05-17T10:10:49Z</time>
</trkpt>
<trkpt lat="54.839287" lon="25.453352">
<time>2022-05-17T10:10:50Z</time>
</trkpt>
<trkpt lat="54.839307" lon="25.453325">
<time>2022-05-17T10:10:51Z</time>
</trkpt>
<trkpt lat="54.839331" lon="25.453297">
<time>2022-05-17T10:10:52Z</time>
</trkpt>
<trkpt lat="54.839353" lon="25.453276">
<time>2022-05-17T10:10:53Z</time>
</trkpt>
<trkpt lat="54.839376" lon="25.453264">
<time>2022-05-17T10:10:54Z</time>
</trkpt>
<trkpt lat="54.839397" lon="25.453264">
<time>2022-05-17T10:10:55Z</time>
</trkpt>
<trkpt lat="54.839422" lon="25.453264">
<time>2022-05-17T10:10:56Z</time>
</trkpt>
<trkpt lat="54.839449" lon="25.453271">
<time>2022-05-17T10:10:57Z</time>
</trkpt>
<trkpt lat="54.839477" lon="25.453281">
<time>2022-05-17T10:10:58Z</time>
</trkpt>
<trkpt lat="54.839506" lon="25.453301">
<time>2022-05-17T10:10:59Z</time>
</trkpt>
<trkpt lat="54.839532" lon="25.453326">
<time>2022-05-17T10:11:00Z</time>
</trkpt>
<trkpt lat="54.839561" lon="25.45335">
<time>2022-05-17T10:11:01Z</time>
</trkpt>
<trkpt lat="54.839592" lon="25.453376">
<time>2022-05-17T10:11:02Z</time>
</trkpt>
<trkpt lat="54.839617" lon="25.453406">
<time>2022-05-17T10:11:03Z</time>
</trkpt>
<trkpt lat="54.839642" lon="25.453444">
<time>2022-05-17T10:11:04Z</time>
</trkpt>
<trkpt lat="54.839666" lon="25.453483">
<time>2022-05-17T10:11:05Z</time>
</trkpt>
<trkpt lat="54.839699" lon="25.453525">
<time>2022-05-17T10:11:06Z</time>
</trkpt>
<trkpt lat="54.83973" lon="25.453578">
<time>2022-05-17T10:11:07Z</time>
</trkpt>
<trkpt lat="54.839759" lon="25.453638">
<time>2022-05-17T10:11:08Z</time>
</trkpt>
<trkpt lat="54.839782" lon="25.453696">
<time>2022-05-17T10:11:09Z</time>
</trkpt>
<trkpt lat="54.839805" lon="25.453747">
<time>2022-05-17T10:11:10Z</time>
</trkpt>
<trkpt lat="54.839826" lon="25.453792">
<time>2022-05-17T10:11:11Z</time>
</trkpt>
<trkpt lat="54.839846" lon="25.453842">
<time>2022-05-17T10:11:12Z</time>
</trkpt>
<trkpt lat="54.839864" lon="25.453899">
<time>2022-05-17T10:11:13Z</time>
</trkpt>
<trkpt lat="54.839878" lon="25.45396">
<time>2022-05-17T10:11:14Z</time>
</trkpt>
<trkpt lat="54.839892" lon="25.45402">
<time>2022-05-17T10:11:15Z</time>
</trkpt>
<trkpt lat="54.839903" lon="25.45408">
<time>2022-05-17T10:11:16Z</time>
</trkpt>
<trkpt lat="54.839915" lon="25.454138">
<time>2022-05-17T10:11:17Z</time>
</trkpt>
<trkpt lat="54.83993" lon="25.454193">
<time>2022-05-17T10:11:18Z</time>
</trkpt>
<trkpt lat="54.839947" lon="25.454238">
<time>2022-05-17T10:11:19Z</time>
</trkpt>
<trkpt lat="54.839962" lon="25.454277">
<time>2022-05-17T10:11:20Z</time>
</trkpt>
<trkpt lat="54.839972" lon="25.454315">
<time>2022-05-17T10:11:21Z</time>
</trkpt>
<trkpt lat="54.83998" lon="25.45436">
<time>2022-05-17T10:11:22Z</time>
</trkpt>
<trkpt lat="54.839987" lon="25.454407">
<time>2022-05-17T10:11:23Z</time>
</trkpt>
<trkpt lat="54.839996" lon="25.454453">
<time>2022-05-17T10:11:24Z</time>
</trkpt>
<trkpt lat="54.840009" lon="25.454503">
<time>2022-05-17T10:11:25Z</time>
</trkpt>
<trkpt lat="54.840023" lon="25.454553">
<time>2022-05-17T10:11:26Z</time>
</trkpt>
<trkpt lat="54.840035" lon="25.454604">
<time>2022-05-17T10:11:27Z</time>
</trkpt>
<trkpt lat="54.840038" lon="25.454646">
<time>2022-05-17T10:11:28Z</time>
</trkpt>
<trkpt lat="54.840037" lon="25.454688">
<time>2022-05-17T10:11:29Z</time>
</trkpt>
<trkpt lat="54.840028" lon="25.454737">
<time>2022-05-17T10:11:30Z</time>
</trkpt>
<trkpt lat="54.840019" lon="25.454789">
<time>2022-05-17T10:11:31Z</time>
</trkpt>
<trkpt lat="54.84002" lon="25.454843">
<time>2022-05-17T10:11:32Z</time>
</trkpt>
<trkpt lat="54.840029" lon="25.454895">
<time>2022-05-17T10:11:33Z</time>
</trkpt>
<trkpt lat="54.840044" lon="25.45495">
<time>2022-05-17T10:11:34Z</time>
</trkpt>
<trkpt lat="54.840055" lon="25.455012">
<time>2022-05-17T10:11:35Z</time>
</trkpt>
<trkpt lat="54.840065" lon="25.45508">
<time>2022-05-17T10:11:36Z</time>
</trkpt>
<trkpt lat="54.840071" lon="25.45516">
<time>2022-05-17T10:11:37Z</time>
</trkpt>
<trkpt lat="54.840079" lon="25.45524">
<time>2022-05-17T10:11:38Z</time>
</trkpt>
<trkpt lat="54.840086" lon="25.45532">
<time>2022-05-17T10:11:39Z</time>
</trkpt>
<trkpt lat="54.840099" lon="25.455392">
<time>2022-05-17T10:11:40Z</time>
</trkpt>
<trkpt lat="54.840114" lon="25.455463">
<time>2022-05-17T10:11:41Z</time>
</trkpt>
<trkpt lat="54.840134" lon="25.455533">
<time>2022-05-17T10:11:42Z</time>
</trkpt>
<trkpt lat="54.840153" lon="25.455606">
<time>2022-05-17T10:11:43Z</time>
</trkpt>
<trkpt lat="54.840166" lon="25.455685">
<time>2022-05-17T10:11:44Z</time>
</trkpt>
<trkpt lat="54.84017" lon="25.455768">
<time>2022-05-17T10:11:45Z</time>
</trkpt>
<trkpt lat="54.84017" lon="25.45585">
<time>2022-05-17T10:11:46Z</time>
</trkpt>
<trkpt lat="54.840164" lon="25.455941">
<time>2022-05-17T10:11:47Z</time>
</trkpt>
<trkpt lat="54.840156" lon="25.456038">
<time>2022-05-17T10:11:48Z</time>
</trkpt>
<trkpt lat="54.840149" lon="25.456142">
<time>2022-05-17T10:11:49Z</time>
</trkpt>
<trkpt lat="54.840144" lon="25.456239">
<time>2022-05-17T10:11:50Z</time>
</trkpt>
<trkpt lat="54.84014" lon="25.45633">
<time>2022-05-17T10:11:51Z</time>
</trkpt>
<trkpt lat="54.840134" lon="25.45641">
<time>2022-05-17T10:11:52Z</time>
</trkpt>
<trkpt lat="54.840123" lon="25.456478">
<time>2022-05-17T10:11:53Z</time>
</trkpt>
<trkpt lat="54.840104" lon="25.456535">
<time>2022-05-17T10:11:54Z</time>
</trkpt>
<trkpt lat="54.840076" lon="25.456573">
<time>2022-05-17T10:11:55Z</time>
</trkpt>
<trkpt lat="54.840042" lon="25.456596">
<time>2022-05-17T10:11:56Z</time>
</trkpt>
<trkpt lat="54.840003" lon="25.456608">
<time>2022-05-17T10:11:57Z</time>
</trkpt>
<trkpt lat="54.839965" lon="25.456625">
<time>2022-05-17T10:11:58Z</time>
</trkpt>
<trkpt lat="54.839934" lon="25.456654">
<time>2022-05-17T10:11:59Z</time>
</trkpt>
<trkpt lat="54.839917" lon="25.456702">
<time>2022-05-17T10:12:00Z</time>
</trkpt>
<trkpt lat="54.839908" lon="25.456775">
<time>2022-05-17T10:12:01Z</time>
</trkpt>
<trkpt lat="54.839907" lon="25.456865">
<time>2022-05-17T10:12:02Z</time>
</trkpt>
<trkpt lat="54.839906" lon="25.456971">
<time>2022-05-17T10:12:03Z</time>
</trkpt>
<trkpt lat="54.839907" lon="25.457079">
<time>2022-05-17T10:12:04Z</time>
</trkpt>
<trkpt lat="54.839903" lon="25.457187">
<time>2022-05-17T10:12:05Z</time>
</trkpt>
<trkpt lat="54.839902" lon="25.457288">
<time>2022-05-17T10:12:06Z</time>
</trkpt>
<trkpt lat="54.839906" lon="25.457388">
<time>2022-05-17T10:12:07Z</time>
</trkpt>
<trkpt lat="54.839922" lon="25.457488">
<time>2022-05-17T10:12:08Z</time>
</trkpt>
<trkpt lat="54.839951" lon="25.457583">
<time>2022-05-17T10:12:09Z</time>
</trkpt>
<trkpt lat="54.839992" lon="25.457664">
<time>2022-05-17T10:12:10Z</time>
</trkpt>
<trkpt lat="54.840049" lon="25.457738">
<time>2022-05-17T10:12:11Z</time>
</trkpt>
<trkpt lat="54.840111" lon="25.457822">
<time>2022-05-17T10:12:12Z</time>
</trkpt>
<trkpt lat="54.840166" lon="25.457923">
<time>2022-05-17T10:12:13Z</time>
</trkpt>
<trkpt lat="54.840198" lon="25.458036">
<time>2022-05-17T10:12:14Z</time>
</trkpt>
<trkpt lat="54.840216" lon="25.458143">
<time>2022-05-17T10:12:15Z</time>
</trkpt>
<trkpt lat="54.840218" lon="25.458232">
<time>2022-05-17T10:12:16Z</time>
</trkpt>
<trkpt lat="54.840218" lon="25.458308">
<time>2022-05-17T10:12:17Z</time>
</trkpt>
<trkpt lat="54.840219" lon="25.458373">
<time>2022-05-17T10:12:18Z</time>
</trkpt>
<trkpt lat="54.840228" lon="25.458429">
<time>2022-05-17T10:12:19Z</time>
</trkpt>
<trkpt lat="54.840243" lon="25.458466">
<time>2022-05-17T10:12:20Z</time>
</trkpt>
<trkpt lat="54.84026" lon="25.458482">
<time>2022-05-17T10:12:21Z</time>
</trkpt>
<trkpt lat="54.840278" lon="25.458479">
<time>2022-05-17T10:12:22Z</time>
</trkpt>
<trkpt lat="54.840298" lon="25.458458">
<time>2022-05-17T10:12:23Z</time>
</trkpt>
<trkpt lat="54.840324" lon="25.458433">
<time>2022-05-17T10:12:24Z</time>
</trkpt>
<trkpt lat="54.840356" lon="25.45841">
<time>2022-05-17T10:12:25Z</time>
</trkpt>
<trkpt lat="54.840395" lon="25.458401">
<time>2022-05-17T10:12:26Z</time>
</trkpt>
<trkpt lat="54.840437" lon="25.4584">
<time>2022-05-17T10:12:27Z</time>
</trkpt>
<trkpt lat="54.840478" lon="25.458413">
<time>2022-05-17T10:12:28Z</time>
</trkpt>
<trkpt lat="54.840514" lon="25.458438">
<time>2022-05-17T10:12:29Z</time>
</trkpt>
<trkpt lat="54.840546" lon="25.458469">
<time>2022-05-17T10:12:30Z</time>
</trkpt>
<trkpt lat="54.840576" lon="25.458502">
<time>2022-05-17T10:12:31Z</time>
</trkpt>
<trkpt lat="54.840602" lon="25.458541">
<time>2022-05-17T10:12:32Z</time>
</trkpt>
<trkpt lat="54.840624" lon="25.458586">
<time>2022-05-17T10:12:33Z</time>
</trkpt>
<trkpt lat="54.84064" lon="25.45864">
<time>2022-05-17T10:12:34Z</time>
</trkpt>
<trkpt lat="54.840652" lon="25.458693">
<time>2022-05-17T10:12:35Z</time>
</trkpt>
<trkpt lat="54.840663" lon="25.45874">
<time>2022-05-17T10:12:36Z</time>
</trkpt>
<trkpt lat="54.840676" lon="25.458774">
<time>2022-05-17T10:12:37Z</time>
</trkpt>
<trkpt lat="54.840691" lon="25.458797">
<time>2022-05-17T10:12:38Z</time>
</trkpt>
<trkpt lat="54.840708" lon="25.458815">
<time>2022-05-17T10:12:39Z</time>
</trkpt>
<trkpt lat="54.840726" lon="25.458826">
<time>2022-05-17T10:12:40Z</time>
</trkpt>
<trkpt lat="54.840747" lon="25.458838">
<time>2022-05-17T10:12:41Z</time>
</trkpt>
<trkpt lat="54.840766" lon="25.458858">
<time>2022-05-17T10:12:42Z</time>
</trkpt>
<trkpt lat="54.840783" lon="25.458882">
<time>2022-05-17T10:12:43Z</time>
</trkpt>
<trkpt lat="54.840799" lon="25.4589">
<time>2022-05-17T10:12:44Z</time>
</trkpt>
<trkpt lat="54.84082" lon="25.458909">
<time>2022-05-17T10:12:45Z</time>
</trkpt>
<trkpt lat="54.840846" lon="25.458915">
<time>2022-05-17T10:12:46Z</time>
</trkpt>
<trkpt lat="54.840868" lon="25.458933">
<time>2022-05-17T10:12:47Z</time>
</trkpt>
<trkpt lat="54.840883" lon="25.458964">
<time>2022-05-17T10:12:48Z</time>
</trkpt>
<trkpt lat="54.84089" lon="25.459006">
<time>2022-05-17T10:12:49Z</time>
</trkpt>
<trkpt lat="54.840899" lon="25.459046">
<time>2022-05-17T10:12:50Z</time>
</trkpt>
<trkpt lat="54.840913" lon="25.459074">
<time>2022-05-17T10:12:51Z</time>
</trkpt>
<trkpt lat="54.840933" lon="25.459095">
<time>2022-05-17T10:12:52Z</time>
</trkpt>
<trkpt lat="54.840952" lon="25.459113">
<time>2022-05-17T10:12:53Z</time>
</trkpt>
<trkpt lat="54.840974" lon="25.459127">
<time>2022-05-17T10:12:54Z</time>
</trkpt>
<trkpt lat="54.840995" lon="25.459139">
<time>2022-05-17T10:12:55Z</time>
</trkpt>
<trkpt lat="54.841017" lon="25.459152">
<time>2022-05-17T10:12:56Z</time>
</trkpt>
<trkpt lat="54.84104" lon="25.459166">
<time>2022-05-17T10:12:57Z</time>
</trkpt>
<trkpt lat="54.841064" lon="25.459169">
<time>2022-05-17T10:12:58Z</time>
</trkpt>
<trkpt lat="54.841091" lon="25.459152">
<time>2022-05-17T10:12:59Z</time>
</trkpt>
<trkpt lat="54.841117" lon="25.459122">
<time>2022-05-17T10:13:00Z</time>
</trkpt>
<trkpt lat="54.841144" lon="25.459084">
<time>2022-05-17T10:13:01Z</time>
</trkpt>
<trkpt lat="54.841172" lon="25.459051">
<time>2022-05-17T10:13:02Z</time>
</trkpt>
<trkpt lat="54.841197" lon="25.459022">
<time>2022-05-17T10:13:03Z</time>
</trkpt>
<trkpt lat="54.841218" lon="25.458999">
<time>2022-05-17T10:13:04Z</time>
</trkpt>
<trkpt lat="54.841236" lon="25.458977">
<time>2022-05-17T10:13:05Z</time>
</trkpt>
<trkpt lat="54.841255" lon="25.458953">
<time>2022-05-17T10:13:06Z</time>
</trkpt>
<trkpt lat="54.841279" lon="25.458931">
<time>2022-05-17T10:13:07Z</time>
</trkpt>
<trkpt lat="54.841302" lon="25.458908">
<time>2022-05-17T10:13:08Z</time>
</trkpt>
<trkpt lat="54.841322" lon="25.458892">
<time>2022-05-17T10:13:09Z</time>
</trkpt>
<trkpt lat="54.841337" lon="25.458881">
<time>2022-05-17T10:13:10Z</time>
</trkpt>
<trkpt lat="54.841356" lon="25.458874">
<time>2022-05-17T10:13:11Z</time>
</trkpt>
<trkpt lat="54.841375" lon="25.458867">
<time>2022-05-17T10:13:12Z</time>
</trkpt>
<trkpt lat="54.841398" lon="25.45886">
<time>2022-05-17T10:13:13Z</time>
</trkpt>
<trkpt lat="54.841421" lon="25.458857">
<time>2022-05-17T10:13:14Z</time>
</trkpt>
<trkpt lat="54.841449" lon="25.458861">
<time>2022-05-17T10:13:15Z</time>
</trkpt>
<trkpt lat="54.841479" lon="25.458877">
<time>2022-05-17T10:13:16Z</time>
</trkpt>
<trkpt lat="54.841511" lon="25.458911">
<time>2022-05-17T10:13:17Z</time>
</trkpt>
<trkpt lat="54.841539" lon="25.458964">
<time>2022-05-17T10:13:18Z</time>
</trkpt>
<trkpt lat="54.841559" lon="25.459022">
<time>2022-05-17T10:13:19Z</time>
</trkpt>
<trkpt lat="54.841565" lon="25.459087">
<time>2022-05-17T10:13:20Z</time>
</trkpt>
<trkpt lat="54.841563" lon="25.459151">
<time>2022-05-17T10:13:21Z</time>
</trkpt>
<trkpt lat="54.841568" lon="25.459211">
<time>2022-05-17T10:13:22Z</time>
</trkpt>
<trkpt lat="54.841589" lon="25.459255">
<time>2022-05-17T10:13:23Z</time>
</trkpt>
<trkpt lat="54.841622" lon="25.459273">
<time>2022-05-17T10:13:24Z</time>
</trkpt>
<trkpt lat="54.841659" lon="25.459269">
<time>2022-05-17T10:13:25Z</time>
</trkpt>
<trkpt lat="54.841696" lon="25.459242">
<time>2022-05-17T10:13:26Z</time>
</trkpt>
<trkpt lat="54.841734" lon="25.459204">
<time>2022-05-17T10:13:27Z</time>
</trkpt>
<trkpt lat="54.84177" lon="25.459158">
<time>2022-05-17T10:13:28Z</time>
</trkpt>
<trkpt lat="54.841799" lon="25.459109">
<time>2022-05-17T10:13:29Z</time>
</trkpt>
<trkpt lat="54.84182" lon="25.459055">
<time>2022-05-17T10:13:30Z</time>
</trkpt>
<trkpt lat="54.841832" lon="25.459001">
<time>2022-05-17T10:13:31Z</time>
</trkpt>
<trkpt lat="54.841835" lon="25.458944">
<time>2022-05-17T10:13:32Z</time>
</trkpt>
<trkpt lat="54.841828" lon="25.458885">
<time>2022-05-17T10:13:33Z</time>
</trkpt>
<trkpt lat="54.841816" lon="25.458821">
<time>2022-05-17T10:13:34Z</time>
</trkpt>
<trkpt lat="54.841803" lon="25.458759">
<time>2022-05-17T10:13:35Z</time>
</trkpt>
<trkpt lat="54.841792" lon="25.458699">
<time>2022-05-17T10:13:36Z</time>
</trkpt>
<trkpt lat="54.841783" lon="25.458643">
<time>2022-05-17T10:13:37Z</time>
</trkpt>
<trkpt lat="54.841768" lon="25.458586">
<time>2022-05-17T10:13:38Z</time>
</trkpt>
<trkpt lat="54.841753" lon="25.458526">
<time>2022-05-17T10:13:39Z</time>
</trkpt>
<trkpt lat="54.841737" lon="25.458462">
<time>2022-05-17T10:13:40Z</time>
</trkpt>
<trkpt lat="54.841726" lon="25.458393">
<time>2022-05-17T10:13:41Z</time>
</trkpt>
<trkpt lat="54.841715" lon="25.458323">
<time>2022-05-17T10:13:42Z</time>
</trkpt>
<trkpt lat="54.841703" lon="25.458251">
<time>2022-05-17T10:13:43Z</time>
</trkpt>
<trkpt lat="54.841691" lon="25.458181">
<time>2022-05-17T10:13:44Z</time>
</trkpt>
<trkpt lat="54.841677" lon="25.45811">
<time>2022-05-17T10:13:45Z</time>
</trkpt>
<trkpt lat="54.841663" lon="25.45804">
<time>2022-05-17T10:13:46Z</time>
</trkpt>
<trkpt lat="54.841649" lon="25.45797">
<time>2022-05-17T10:13:47Z</time>
</trkpt>
<trkpt lat="54.841635" lon="25.4579">
<time>2022-05-17T10:13:48Z</time>
</trkpt>
<trkpt lat="54.841623" lon="25.45783">
<time>2022-05-17T10:13:49Z</time>
</trkpt>
<trkpt lat="54.841614" lon="25.457759">
<time>2022-05-17T10:13:50Z</time>
</trkpt>
<trkpt lat="54.841604" lon="25.457695">
<time>2022-05-17T10:13:51Z</time>
</trkpt>
<trkpt lat="54.841591" lon="25.457645">
<time>2022-05-17T10:13:52Z</time>
</trkpt>
<trkpt lat="54.84157" lon="25.457621">
<time>2022-05-17T10:13:53Z</time>
</trkpt>
<trkpt lat="54.841539" lon="25.457624">
<time>2022-05-17T10:13:54Z</time>
</trkpt>
<trkpt lat="54.841506" lon="25.45764">
<time>2022-05-17T10:13:55Z</time>
</trkpt>
<trkpt lat="54.841473" lon="25.457661">
<time>2022-05-17T10:13:56Z</time>
</trkpt>
<trkpt lat="54.841445" lon="25.457677">
<time>2022-05-17T10:13:57Z</time>
</trkpt>
<trkpt lat="54.841416" lon="25.457694">
<time>2022-05-17T10:13:58Z</time>
</trkpt>
<trkpt lat="54.841388" lon="25.457708">
<time>2022-05-17T10:13:59Z</time>
</trkpt>
<trkpt lat="54.841363" lon="25.457719">
<time>2022-05-17T10:14:00Z</time>
</trkpt>
<trkpt lat="54.841346" lon="25.457723">
<time>2022-05-17T10:14:01Z</time>
</trkpt>
<trkpt lat="54.841332" lon="25.457731">
<time>2022-05-17T10:14:02Z</time>
</trkpt>
<trkpt lat="54.841318" lon="25.457741">
<time>2022-05-17T10:14:03Z</time>
</trkpt>
<trkpt lat="54.841298" lon="25.457757">
<time>2022-05-17T10:14:04Z</time>
</trkpt>
<trkpt lat="54.841277" lon="25.457769">
<time>2022-05-17T10:14:05Z</time>
</trkpt>
<trkpt lat="54.841255" lon="25.457783">
<time>2022-05-17T10:14:06Z</time>
</trkpt>
<trkpt lat="54.841233" lon="25.457792">
<time>2022-05-17T10:14:07Z</time>
</trkpt>
<trkpt lat="54.841209" lon="25.457802">
<time>2022-05-17T10:14:08Z</time>
</trkpt>
<trkpt lat="54.841182" lon="25.457808">
<time>2022-05-17T10:14:09Z</time>
</trkpt>
<trkpt lat="54.841155" lon="25.457813">
<time>2022-05-17T10:14:10Z</time>
</trkpt>
<trkpt lat="54.841128" lon="25.457813">
<time>2022-05-17T10:14:11Z</time>
</trkpt>
<trkpt lat="54.841102" lon="25.457814">
<time>2022-05-17T10:14:12Z</time>
</trkpt>
<trkpt lat="54.841077" lon="25.457819">
<time>2022-05-17T10:14:13Z</time>
</trkpt>
<trkpt lat="54.841053" lon="25.457833">
<time>2022-05-17T10:14:14Z</time>
</trkpt>
<trkpt lat="54.84103" lon="25.457845">
<time>2022-05-17T10:14:15Z</time>
</trkpt>
<trkpt lat="54.841007" lon="25.457857">
<time>2022-05-17T10:14:16Z</time>
</trkpt>
<trkpt lat="54.840985" lon="25.457866">
<time>2022-05-17T10:14:17Z</time>
</trkpt>
<trkpt lat="54.840963" lon="25.457876">
<time>2022-05-17T10:14:18Z</time>
</trkpt>
<trkpt lat="54.840942" lon="25.457891">
<time>2022-05-17T10:14:19Z</time>
</trkpt>
<trkpt lat="54.840918" lon="25.457909">
<time>2022-05-17T10:14:20Z</time>
</trkpt>
<trkpt lat="54.84089" lon="25.457927">
<time>2022-05-17T10:14:21Z</time>
</trkpt>
<trkpt lat="54.840859" lon="25.457938">
<time>2022-05-17T10:14:22Z</time>
</trkpt>
<trkpt lat="54.840822" lon="25.457936">
<time>2022-05-17T10:14:23Z</time>
</trkpt>
<trkpt lat="54.840785" lon="25.457924">
<time>2022-05-17T10:14:24Z</time>
</trkpt>
<trkpt lat="54.840749" lon="25.457901">
<time>2022-05-17T10:14:25Z</time>
</trkpt>
<trkpt lat="54.840721" lon="25.457876">
<time>2022-05-17T10:14:26Z</time>
</trkpt>
<trkpt lat="54.840696" lon="25.457846">
<time>2022-05-17T10:14:27Z</time>
</trkpt>
<trkpt lat="54.840674" lon="25.457814">
<time>2022-05-17T10:14:28Z</time>
</trkpt>
<trkpt lat="54.840659" lon="25.457766">
<time>2022-05-17T10:14:29Z</time>
</trkpt>
<trkpt lat="54.84065" lon="25.457705">
<time>2022-05-17T10:14:30Z</time>
</trkpt>
<trkpt lat="54.840643" lon="25.457642">
<time>2022-05-17T10:14:31Z</time>
</trkpt>
<trkpt lat="54.840637" lon="25.457579">
<time>2022-05-17T10:14:32Z</time>
</trkpt>
<trkpt lat="54.840635" lon="25.457517">
<time>2022-05-17T10:14:33Z</time>
</trkpt>
<trkpt lat="54.840637" lon="25.457451">
<time>2022-05-17T10:14:34Z</time>
</trkpt>
<trkpt lat="54.840643" lon="25.457392">
<time>2022-05-17T10:14:35Z</time>
</trkpt>
<trkpt lat="54.840649" lon="25.457337">
<time>2022-05-17T10:14:36Z</time>
</trkpt>
<trkpt lat="54.840656" lon="25.457277">
<time>2022-05-17T10:14:37Z</time>
</trkpt>
<trkpt lat="54.840663" lon="25.457216">
<time>2022-05-17T10:14:38Z</time>
</trkpt>
<trkpt lat="54.840666" lon="25.457158">
<time>2022-05-17T10:14:39Z</time>
</trkpt>
<trkpt lat="54.840658" lon="25.457109">
<time>2022-05-17T10:14:40Z</time>
</trkpt>
<trkpt lat="54.840643" lon="25.45707">
<time>2022-05-17T10:14:41Z</time>
</trkpt>
<trkpt lat="54.840621" lon="25.457039">
<time>2022-05-17T10:14:42Z</time>
</trkpt>
<trkpt lat="54.840605" lon="25.457015">
<time>2022-05-17T10:14:43Z</time>
</trkpt>
<trkpt lat="54.840588" lon="25.456995">
<time>2022-05-17T10:14:44Z</time>
</trkpt>
<trkpt lat="54.840571" lon="25.456974">
<time>2022-05-17T10:14:45Z</time>
</trkpt>
<trkpt lat="54.840546" lon="25.456953">
<time>2022-05-17T10:14:46Z</time>
</trkpt>
<trkpt lat="54.840518" lon="25.456933">
<time>2022-05-17T10:14:47Z</time>
</trkpt>
<trkpt lat="54.84049" lon="25.456921">
<time>2022-05-17T10:14:48Z</time>
</trkpt>
<trkpt lat="54.840463" lon="25.456915">
<time>2022-05-17T10:14:49Z</time>
</trkpt>
<trkpt lat="54.84044" lon="25.456913">
<time>2022-05-17T10:14:50Z</time>
</trkpt>
<trkpt lat="54.84042" lon="25.456912">
<time>2022-05-17T10:14:51Z</time>
</trkpt>
<trkpt lat="54.840399" lon="25.45691">
<time>2022-05-17T10:14:52Z</time>
</trkpt>
<trkpt lat="54.840377" lon="25.456907">
<time>2022-05-17T10:14:53Z</time>
</trkpt>
<trkpt lat="54.840353" lon="25.456907">
<time>2022-05-17T10:14:54Z</time>
</trkpt>
<trkpt lat="54.84033" lon="25.456906">
<time>2022-05-17T10:14:55Z</time>
</trkpt>
<trkpt lat="54.840301" lon="25.456909">
<time>2022-05-17T10:14:56Z</time>
</trkpt>
<trkpt lat="54.840269" lon="25.45691">
<time>2022-05-17T10:14:57Z</time>
</trkpt>
<trkpt lat="54.840235" lon="25.456908">
<time>2022-05-17T10:14:58Z</time>
</trkpt>
<trkpt lat="54.840203" lon="25.456903">
<time>2022-05-17T10:14:59Z</time>
</trkpt>
<trkpt lat="54.840168" lon="25.456893">
<time>2022-05-17T10:15:00Z</time>
</trkpt>
<trkpt lat="54.840133" lon="25.456875">
<time>2022-05-17T10:15:01Z</time>
</trkpt>
<trkpt lat="54.840104" lon="25.456843">
<time>2022-05-17T10:15:02Z</time>
</trkpt>
<trkpt lat="54.840086" lon="25.456797">
<time>2022-05-17T10:15:03Z</time>
</trkpt>
<trkpt lat="54.840073" lon="25.456746">
<time>2022-05-17T10:15:04Z</time>
</trkpt>
<trkpt lat="54.84006" lon="25.456693">
<time>2022-05-17T10:15:05Z</time>
</trkpt>
<trkpt lat="54.840043" lon="25.456642">
<time>2022-05-17T10:15:06Z</time>
</trkpt>
<trkpt lat="54.840027" lon="25.456584">
<time>2022-05-17T10:15:07Z</time>
</trkpt>
<trkpt lat="54.840008" lon="25.456526">
<time>2022-05-17T10:15:08Z</time>
</trkpt>
<trkpt lat="54.839989" lon="25.456474">
<time>2022-05-17T10:15:09Z</time>
</trkpt>
<trkpt lat="54.839963" lon="25.456422">
<time>2022-05-17T10:15:10Z</time>
</trkpt>
<trkpt lat="54.839936" lon="25.456367">
<time>2022-05-17T10:15:11Z</time>
</trkpt>
<trkpt lat="54.839908" lon="25.456306">
<time>2022-05-17T10:15:12Z</time>
</trkpt>
<trkpt lat="54.839881" lon="25.456251">
<time>2022-05-17T10:15:13Z</time>
</trkpt>
<trkpt lat="54.839853" lon="25.456202">
<time>2022-05-17T10:15:14Z</time>
</trkpt>
<trkpt lat="54.839825" lon="25.456153">
<time>2022-05-17T10:15:15Z</time>
</trkpt>
<trkpt lat="54.839795" lon="25.456103">
<time>2022-05-17T10:15:16Z</time>
</trkpt>
<trkpt lat="54.839767" lon="25.456052">
<time>2022-05-17T10:15:17Z</time>
</trkpt>
<trkpt lat="54.839742" lon="25.456006">
<time>2022-05-17T10:15:18Z</time>
</trkpt>
<trkpt lat="54.839721" lon="25.455961">
<time>2022-05-17T10:15:19Z</time>
</trkpt>
<trkpt lat="54.839701" lon="25.455917">
<time>2022-05-17T10:15:20Z</time>
</trkpt>
<trkpt lat="54.839683" lon="25.455869">
<time>2022-05-17T10:15:21Z</time>
</trkpt>
<trkpt lat="54.839668" lon="25.455819">
<time>2022-05-17T10:15:22Z</time>
</trkpt>
<trkpt lat="54.839654" lon="25.455772">
<time>2022-05-17T10:15:23Z</time>
</trkpt>
<trkpt lat="54.839639" lon="25.45573">
<time>2022-05-17T10:15:24Z</time>
</trkpt>
<trkpt lat="54.839621" lon="25.45569">
<time>2022-05-17T10:15:25Z</time>
</trkpt>
<trkpt lat="54.839603" lon="25.455646">
<time>2022-05-17T10:15:26Z</time>
</trkpt>
<trkpt lat="54.839586" lon="25.455597">
<time>2022-05-17T10:15:27Z</time>
</trkpt>
<trkpt lat="54.83957" lon="25.455542">
<time>2022-05-17T10:15:28Z</time>
</trkpt>
<trkpt lat="54.839554" lon="25.455482">
<time>2022-05-17T10:15:29Z</time>
</trkpt>
<trkpt lat="54.839535" lon="25.455422">
<time>2022-05-17T10:15:30Z</time>
</trkpt>
<trkpt lat="54.839516" lon="25.455362">
<time>2022-05-17T10:15:31Z</time>
</trkpt>
<trkpt lat="54.839495" lon="25.455307">
<time>2022-05-17T10:15:32Z</time>
</trkpt>
<trkpt lat="54.839476" lon="25.455253">
<time>2022-05-17T10:15:33Z</time>
</trkpt>
<trkpt lat="54.839458" lon="25.455202">
<time>2022-05-17T10:15:34Z</time>
</trkpt>
<trkpt lat="54.839436" lon="25.455149">
<time>2022-05-17T10:15:35Z</time>
</trkpt>
<trkpt lat="54.839413" lon="25.455101">
<time>2022-05-17T10:15:36Z</time>
</trkpt>
<trkpt lat="54.839387" lon="25.455052">
<time>2022-05-17T10:15:37Z</time>
</trkpt>
<trkpt lat="54.839364" lon="25.454997">
<time>2022-05-17T10:15:38Z</time>
</trkpt>
<trkpt lat="54.83934" lon="25.454935">
<time>2022-05-17T10:15:39Z</time>
</trkpt>
<trkpt lat="54.839312" lon="25.45487">
<time>2022-05-17T10:15:40Z</time>
</trkpt>
<trkpt lat="54.839283" lon="25.454803">
<time>2022-05-17T10:15:41Z</time>
</trkpt>
<trkpt lat="54.83926" lon="25.454734">
<time>2022-05-17T10:15:42Z</time>
</trkpt>
<trkpt lat="54.839237" lon="25.45467">
<time>2022-05-17T10:15:43Z</time>
</trkpt>
<trkpt lat="54.839206" lon="25.45462">
<time>2022-05-17T10:15:44Z</time>
</trkpt>
<trkpt lat="54.839163" lon="25.45458">
<time>2022-05-17T10:15:45Z</time>
</trkpt>
<trkpt lat="54.839121" lon="25.454543">
<time>2022-05-17T10:15:46Z</time>
</trkpt>
<trkpt lat="54.839085" lon="25.454508">
<time>2022-05-17T10:15:47Z</time>
</trkpt>
<trkpt lat="54.839055" lon="25.454478">
<time>2022-05-17T10:15:48Z</time>
</trkpt>
<trkpt lat="54.839027" lon="25.454457">
<time>2022-05-17T10:15:49Z</time>
</trkpt>
<trkpt lat="54.838999" lon="25.454451">
<time>2022-05-17T10:15:50Z</time>
</trkpt>
<trkpt lat="54.83897" lon="25.454458">
<time>2022-05-17T10:15:51Z</time>
</trkpt>
<trkpt lat="54.838939" lon="25.454475">
<time>2022-05-17T10:15:52Z</time>
</trkpt>
<trkpt lat="54.838909" lon="25.454492">
<time>2022-05-17T10:15:53Z</time>
</trkpt>
<trkpt lat="54.838872" lon="25.454509">
<time>2022-05-17T10:15:54Z</time>
</trkpt>
<trkpt lat="54.838832" lon="25.454519">
<time>2022-05-17T10:15:55Z</time>
</trkpt>
<trkpt lat="54.838785" lon="25.454527">
<time>2022-05-17T10:15:56Z</time>
</trkpt>
<trkpt lat="54.838741" lon="25.454529">
<time>2022-05-17T10:15:57Z</time>
</trkpt>
<trkpt lat="54.838698" lon="25.454524">
<time>2022-05-17T10:15:58Z</time>
</trkpt>
<trkpt lat="54.83866" lon="25.454506">
<time>2022-05-17T10:15:59Z</time>
</trkpt>
<trkpt lat="54.838624" lon="25.454471">
<time>2022-05-17T10:16:00Z</time>
</trkpt>
<trkpt lat="54.83859" lon="25.454423">
<time>2022-05-17T10:16:01Z</time>
</trkpt>
<trkpt lat="54.838551" lon="25.454373">
<time>2022-05-17T10:16:02Z</time>
</trkpt>
<trkpt lat="54.838509" lon="25.454327">
<time>2022-05-17T10:16:03Z</time>
</trkpt>
<trkpt lat="54.838463" lon="25.454285">
<time>2022-05-17T10:16:04Z</time>
</trkpt>
<trkpt lat="54.83842" lon="25.454248">
<time>2022-05-17T10:16:05Z</time>
</trkpt>
<trkpt lat="54.838375" lon="25.454222">
<time>2022-05-17T10:16:06Z</time>
</trkpt>
<trkpt lat="54.83833" lon="25.454204">
<time>2022-05-17T10:16:07Z</time>
</trkpt>
<trkpt lat="54.838284" lon="25.454195">
<time>2022-05-17T10:16:08Z</time>
</trkpt>
<trkpt lat="54.838239" lon="25.454188">
<time>2022-05-17T10:16:09Z</time>
</trkpt>
<trkpt lat="54.838199" lon="25.454185">
<time>2022-05-17T10:16:10Z</time>
</trkpt>
<trkpt lat="54.838157" lon="25.454185">
<time>2022-05-17T10:16:11Z</time>
</trkpt>
<trkpt lat="54.838115" lon="25.454191">
<time>2022-05-17T10:16:12Z</time>
</trkpt>
<trkpt lat="54.83807" lon="25.4542">
<time>2022-05-17T10:16:13Z</time>
</trkpt>
<trkpt lat="54.838026" lon="25.454213">
<time>2022-05-17T10:16:14Z</time>
</trkpt>
<trkpt lat="54.837985" lon="25.454228">
<time>2022-05-17T10:16:15Z</time>
</trkpt>
<trkpt lat="54.837942" lon="25.454245">
<time>2022-05-17T10:16:16Z</time>
</trkpt>
<trkpt lat="54.837898" lon="25.454261">
<time>2022-05-17T10:16:17Z</time>
</trkpt>
<trkpt lat="54.837853" lon="25.454275">
<time>2022-05-17T10:16:18Z</time>
</trkpt>
<trkpt lat="54.837809" lon="25.454292">
<time>2022-05-17T10:16:19Z</time>
</trkpt>
<trkpt lat="54.837763" lon="25.454312">
<time>2022-05-17T10:16:20Z</time>
</trkpt>
<trkpt lat="54.837714" lon="25.454337">
<time>2022-05-17T10:16:21Z</time>
</trkpt>
<trkpt lat="54.837662" lon="25.454366">
<time>2022-05-17T10:16:22Z</time>
</trkpt>
<trkpt lat="54.837616" lon="25.454393">
<time>2022-05-17T10:16:23Z</time>
</trkpt>
<trkpt lat="54.837575" lon="25.454416">
<time>2022-05-17T10:16:24Z</time>
</trkpt>
<trkpt lat="54.837541" lon="25.454424">
<time>2022-05-17T10:16:25Z</time>
</trkpt>
<trkpt lat="54.837514" lon="25.454421">
<time>2022-05-17T10:16:26Z</time>
</trkpt>
<trkpt lat="54.837491" lon="25.454403">
<time>2022-05-17T10:16:27Z</time>
</trkpt>
<trkpt lat="54.837472" lon="25.454374">
<time>2022-05-17T10:16:28Z</time>
</trkpt>
<trkpt lat="54.837454" lon="25.454341">
<time>2022-05-17T10:16:29Z</time>
</trkpt>
<trkpt lat="54.837436" lon="25.45431">
<time>2022-05-17T10:16:30Z</time>
</trkpt>
<trkpt lat="54.837419" lon="25.454287">
<time>2022-05-17T10:16:31Z</time>
</trkpt>
<trkpt lat="54.837398" lon="25.454268">
<time>2022-05-17T10:16:32Z</time>
</trkpt>
<trkpt lat="54.837375" lon="25.454253">
<time>2022-05-17T10:16:33Z</time>
</trkpt>
<trkpt lat="54.837354" lon="25.454231">
<time>2022-05-17T10:16:34Z</time>
</trkpt>
<trkpt lat="54.837336" lon="25.454199">
<time>2022-05-17T10:16:35Z</time>
</trkpt>
<trkpt lat="54.837322" lon="25.454156">
<time>2022-05-17T10:16:36Z</time>
</trkpt>
<trkpt lat="54.837306" lon="25.454117">
<time>2022-05-17T10:16:37Z</time>
</trkpt>
<trkpt lat="54.837289" lon="25.454079">
<time>2022-05-17T10:16:38Z</time>
</trkpt>
<trkpt lat="54.837268" lon="25.454036">
<time>2022-05-17T10:16:39Z</time>
</trkpt>
<trkpt lat="54.837249" lon="25.453985">
<time>2022-05-17T10:16:40Z</time>
</trkpt>
<trkpt lat="54.837232" lon="25.453926">
<time>2022-05-17T10:16:41Z</time>
</trkpt>
<trkpt lat="54.83722" lon="25.453863">
<time>2022-05-17T10:16:42Z</time>
</trkpt>
<trkpt lat="54.83721" lon="25.4538">
<time>2022-05-17T10:16:43Z</time>
</trkpt>
<trkpt lat="54.837202" lon="25.453736">
<time>2022-05-17T10:16:44Z</time>
</trkpt>
<trkpt lat="54.83719" lon="25.453676">
<time>2022-05-17T10:16:45Z</time>
</trkpt>
<trkpt lat="54.837169" lon="25.453619">
<time>2022-05-17T10:16:46Z</time>
</trkpt>
<trkpt lat="54.837142" lon="25.453565">
<time>2022-05-17T10:16:47Z</time>
</trkpt>
<trkpt lat="54.83712" lon="25.45351">
<time>2022-05-17T10:16:48Z</time>
</trkpt>
<trkpt lat="54.837112" lon="25.453454">
<time>2022-05-17T10:16:49Z</time>
</trkpt>
<trkpt lat="54.837114" lon="25.453392">
<time>2022-05-17T10:16:50Z</time>
</trkpt>
<trkpt lat="54.837115" lon="25.453325">
<time>2022-05-17T10:16:51Z</time>
</trkpt>
<trkpt lat="54.837112" lon="25.453252">
<time>2022-05-17T10:16:52Z</time>
</trkpt>
<trkpt lat="54.837105" lon="25.453182">
<time>2022-05-17T10:16:53Z</time>
</trkpt>
<trkpt lat="54.8371" lon="25.453117">
<time>2022-05-17T10:16:54Z</time>
</trkpt>
<trkpt lat="54.837098" lon="25.453049">
<time>2022-05-17T10:16:55Z</time>
</trkpt>
<trkpt lat="54.837104" lon="25.452982">
<time>2022-05-17T10:16:56Z</time>
</trkpt>
<trkpt lat="54.837114" lon="25.452917">
<time>2022-05-17T10:16:57Z</time>
</trkpt>
<trkpt lat="54.83712" lon="25.452855">
<time>2022-05-17T10:16:58Z</time>
</trkpt>
<trkpt lat="54.837113" lon="25.452789">
<time>2022-05-17T10:16:59Z</time>
</trkpt>
<trkpt lat="54.837097" lon="25.452725">
<time>2022-05-17T10:17:00Z</time>
</trkpt>
<trkpt lat="54.837072" lon="25.452668">
<time>2022-05-17T10:17:01Z</time>
</trkpt>
<trkpt lat="54.837044" lon="25.452628">
<time>2022-05-17T10:17:02Z</time>
</trkpt>
<trkpt lat="54.837012" lon="25.452597">
<time>2022-05-17T10:17:03Z</time>
</trkpt>
<trkpt lat="54.836984" lon="25.452568">
<time>2022-05-17T10:17:04Z</time>
</trkpt>
<trkpt lat="54.83696" lon="25.452528">
<time>2022-05-17T10:17:05Z</time>
</trkpt>
<trkpt lat="54.836938" lon="25.452487">
<time>2022-05-17T10:17:06Z</time>
</trkpt>
<trkpt lat="54.836917" lon="25.452444">
<time>2022-05-17T10:17:07Z</time>
</trkpt>
<trkpt lat="54.836894" lon="25.452407">
<time>2022-05-17T10:17:08Z</time>
</trkpt>
<trkpt lat="54.836868" lon="25.452372">
<time>2022-05-17T10:17:09Z</time>
</trkpt>
<trkpt lat="54.836842" lon="25.452338">
<time>2022-05-17T10:17:10Z</time>
</trkpt>
<trkpt lat="54.836818" lon="25.452311">
<time>2022-05-17T10:17:11Z</time>
</trkpt>
<trkpt lat="54.8368" lon="25.45229">
<time>2022-05-17T10:17:12Z</time>
</trkpt>
<trkpt lat="54.836783" lon="25.452278">
<time>2022-05-17T10:17:13Z</time>
</trkpt>
<trkpt lat="54.836767" lon="25.452277">
<time>2022-05-17T10:17:14Z</time>
</trkpt>
<trkpt lat="54.836753" lon="25.452288">
<time>2022-05-17T10:17:15Z</time>
</trkpt>
<trkpt lat="54.836746" lon="25.452316">
<time>2022-05-17T10:17:16Z</time>
</trkpt>
<trkpt lat="54.836738" lon="25.452353">
<time>2022-05-17T10:17:17Z</time>
</trkpt>
<trkpt lat="54.836725" lon="25.452399">
<time>2022-05-17T10:17:18Z</time>
</trkpt>
<trkpt lat="54.836709" lon="25.452444">
<time>2022-05-17T10:17:19Z</time>
</trkpt>
<trkpt lat="54.836694" lon="25.452488">
<time>2022-05-17T10:17:20Z</time>
</trkpt>
<trkpt lat="54.83668" lon="25.452533">
<time>2022-05-17T10:17:21Z</time>
</trkpt>
<trkpt lat="54.836662" lon="25.452579">
<time>2022-05-17T10:17:22Z</time>
</trkpt>
<trkpt lat="54.836644" lon="25.452626">
<time>2022-05-17T10:17:23Z</time>
</trkpt>
<trkpt lat="54.836626" lon="25.452671">
<time>2022-05-17T10:17:24Z</time>
</trkpt>
<trkpt lat="54.83661" lon="25.452711">
<time>2022-05-17T10:17:25Z</time>
</trkpt>
<trkpt lat="54.836588" lon="25.452749">
<time>2022-05-17T10:17:26Z</time>
</trkpt>
<trkpt lat="54.836562" lon="25.452778">
<time>2022-05-17T10:17:27Z</time>
</trkpt>
<trkpt lat="54.83653" lon="25.452803">
<time>2022-05-17T10:17:28Z</time>
</trkpt>
<trkpt lat="54.836494" lon="25.452831">
<time>2022-05-17T10:17:29Z</time>
</trkpt>
<trkpt lat="54.836446" lon="25.452875">
<time>2022-05-17T10:17:30Z</time>
</trkpt>
<trkpt lat="54.8364" lon="25.452933">
<time>2022-05-17T10:17:31Z</time>
</trkpt>
<trkpt lat="54.83636" lon="25.452999">
<time>2022-05-17T10:17:32Z</time>
</trkpt>
<trkpt lat="54.836328" lon="25.453064">
<time>2022-05-17T10:17:33Z</time>
</trkpt>
<trkpt lat="54.836296" lon="25.45312">
<time>2022-05-17T10:17:34Z</time>
</trkpt>
<trkpt lat="54.83627" lon="25.453169">
<time>2022-05-17T10:17:35Z</time>
</trkpt>
<trkpt lat="54.836252" lon="25.453222">
<time>2022-05-17T10:17:36Z</time>
</trkpt>
<trkpt lat="54.83624" lon="25.453284">
<time>2022-05-17T10:17:37Z</time>
</trkpt>
<trkpt lat="54.836228" lon="25.45335">
<time>2022-05-17T10:17:38Z</time>
</trkpt>
<trkpt lat="54.836216" lon="25.45341">
<time>2022-05-17T10:17:39Z</time>
</trkpt>
<trkpt lat="54.836206" lon="25.453469">
<time>2022-05-17T10:17:40Z</time>
</trkpt>
<trkpt lat="54.836204" lon="25.453529">
<time>2022-05-17T10:17:41Z</time>
</trkpt>
<trkpt lat="54.836206" lon="25.453596">
<time>2022-05-17T10:17:42Z</time>
</trkpt>
<trkpt lat="54.836204" lon="25.453667">
<time>2022-05-17T10:17:43Z</time>
</trkpt>
<trkpt lat="54.8362" lon="25.453739">
<time>2022-05-17T10:17:44Z</time>
</trkpt>
<trkpt lat="54.836193" lon="25.453815">
<time>2022-05-17T10:17:45Z</time>
</trkpt>
<trkpt lat="54.836187" lon="25.453895">
<time>2022-05-17T10:17:46Z</time>
</trkpt>
<trkpt lat="54.836178" lon="25.453977">
<time>2022-05-17T10:17:47Z</time>
</trkpt>
<trkpt lat="54.836172" lon="25.454055">
<time>2022-05-17T10:17:48Z</time>
</trkpt>
<trkpt lat="54.836168" lon="25.454132">
<time>2022-05-17T10:17:49Z</time>
</trkpt>
<trkpt lat="54.836165" lon="25.454212">
<time>2022-05-17T10:17:50Z</time>
</trkpt>
<trkpt lat="54.836162" lon="25.454296">
<time>2022-05-17T10:17:51Z</time>
</trkpt>
<trkpt lat="54.836159" lon="25.454378">
<time>2022-05-17T10:17:52Z</time>
</trkpt>
<trkpt lat="54.836161" lon="25.454453">
<time>2022-05-17T10:17:53Z</time>
</trkpt>
<trkpt lat="54.836174" lon="25.454526">
<time>2022-05-17T10:17:54Z</time>
</trkpt>
<trkpt lat="54.836194" lon="25.4546">
<time>2022-05-17T10:17:55Z</time>
</trkpt>
<trkpt lat="54.836221" lon="25.454675">
<time>2022-05-17T10:17:56Z</time>
</trkpt>
<trkpt lat="54.836247" lon="25.454745">
<time>2022-05-17T10:17:57Z</time>
</trkpt>
<trkpt lat="54.836275" lon="25.45481">
<time>2022-05-17T10:17:58Z</time>
</trkpt>
<trkpt lat="54.836305" lon="25.454871">
<time>2022-05-17T10:17:59Z</time>
</trkpt>
<trkpt lat="54.836336" lon="25.454933">
<time>2022-05-17T10:18:00Z</time>
</trkpt>
<trkpt lat="54.836366" lon="25.455">
<time>2022-05-17T10:18:01Z</time>
</trkpt>
<trkpt lat="54.83639" lon="25.455073">
<time>2022-05-17T10:18:02Z</time>
</trkpt>
<trkpt lat="54.836407" lon="25.455153">
<time>2022-05-17T10:18:03Z</time>
</trkpt>
<trkpt lat="54.836417" lon="25.455233">
<time>2022-05-17T10:18:04Z</time>
</trkpt>
<trkpt lat="54.836419" lon="25.455315">
<time>2022-05-17T10:18:05Z</time>
</trkpt>
<trkpt lat="54.836415" lon="25.455393">
<time>2022-05-17T10:18:06Z</time>
</trkpt>
<trkpt lat="54.836411" lon="25.45547">
<time>2022-05-17T10:18:07Z</time>
</trkpt>
<trkpt lat="54.836413" lon="25.455534">
<time>2022-05-17T10:18:08Z</time>
</trkpt>
<trkpt lat="54.836421" lon="25.455591">
<time>2022-05-17T10:18:09Z</time>
</trkpt>
<trkpt lat="54.836433" lon="25.455647">
<time>2022-05-17T10:18:10Z</time>
</trkpt>
<trkpt lat="54.836456" lon="25.455697">
<time>2022-05-17T10:18:11Z</time>
</trkpt>
<trkpt lat="54.836488" lon="25.455743">
<time>2022-05-17T10:18:12Z</time>
</trkpt>
<trkpt lat="54.83653" lon="25.455779">
<time>2022-05-17T10:18:13Z</time>
</trkpt>
<trkpt lat="54.836576" lon="25.455821">
<time>2022-05-17T10:18:14Z</time>
</trkpt>
<trkpt lat="54.83662" lon="25.455873">
<time>2022-05-17T10:18:15Z</time>
</trkpt>
<trkpt lat="54.836651" lon="25.455947">
<time>2022-05-17T10:18:16Z</time>
</trkpt>
<trkpt lat="54.836672" lon="25.456033">
<time>2022-05-17T10:18:17Z</time>
</trkpt>
<trkpt lat="54.836684" lon="25.456126">
<time>2022-05-17T10:18:18Z</time>
</trkpt>
<trkpt lat="54.836695" lon="25.456216">
<time>2022-05-17T10:18:19Z</time>
</trkpt>
<trkpt lat="54.836702" lon="25.456302">
<time>2022-05-17T10:18:20Z</time>
</trkpt>
<trkpt lat="54.836703" lon="25.45639">
<time>2022-05-17T10:18:21Z</time>
</trkpt>
<trkpt lat="54.836698" lon="25.456476">
<time>2022-05-17T10:18:22Z</time>
</trkpt>
<trkpt lat="54.83669" lon="25.456562">
<time>2022-05-17T10:18:23Z</time>
</trkpt>
<trkpt lat="54.836683" lon="25.456644">
<time>2022-05-17T10:18:24Z</time>
</trkpt>
<trkpt lat="54.83668" lon="25.456723">
<time>2022-05-17T10:18:25Z</time>
</trkpt>
<trkpt lat="54.836679" lon="25.456799">
<time>2022-05-17T10:18:26Z</time>
</trkpt>
<trkpt lat="54.836682" lon="25.456873">
<time>2022-05-17T10:18:27Z</time>
</trkpt>
<trkpt lat="54.836691" lon="25.456946">
<time>2022-05-17T10:18:28Z</time>
</trkpt>
<trkpt lat="54.836703" lon="25.45702">
<time>2022-05-17T10:18:29Z</time>
</trkpt>
<trkpt lat="54.836724" lon="25.457097">
<time>2022-05-17T10:18:30Z</time>
</trkpt>
<trkpt lat="54.836748" lon="25.457176">
<time>2022-05-17T10:18:31Z</time>
</trkpt>
<trkpt lat="54.836774" lon="25.457257">
<time>2022-05-17T10:18:32Z</time>
</trkpt>
<trkpt lat="54.836792" lon="25.457341">
<time>2022-05-17T10:18:33Z</time>
</trkpt>
<trkpt lat="54.836805" lon="25.457428">
<time>2022-05-17T10:18:34Z</time>
</trkpt>
<trkpt lat="54.836811" lon="25.457519">
<time>2022-05-17T10:18:35Z</time>
</trkpt>
<trkpt lat="54.836811" lon="25.457607">
<time>2022-05-17T10:18:36Z</time>
</trkpt>
<trkpt lat="54.836809" lon="25.457701">
<time>2022-05-17T10:18:37Z</time>
</trkpt>
<trkpt lat="54.836808" lon="25.457797">
<time>2022-05-17T10:18:38Z</time>
</trkpt>
<trkpt lat="54.836808" lon="25.457892">
<time>2022-05-17T10:18:39Z</time>
</trkpt>
<trkpt lat="54.8368" lon="25.45798">
<time>2022-05-17T10:18:40Z</time>
</trkpt>
<trkpt lat="54.836786" lon="25.458059">
<time>2022-05-17T10:18:41Z</time>
</trkpt>
<trkpt lat="54.836762" lon="25.458126">
<time>2022-05-17T10:18:42Z</time>
</trkpt>
<trkpt lat="54.836737" lon="25.458184">
<time>2022-05-17T10:18:43Z</time>
</trkpt>
<trkpt lat="54.836713" lon="25.458238">
<time>2022-05-17T10:18:44Z</time>
</trkpt>
<trkpt lat="54.836696" lon="25.458294">
<time>2022-05-17T10:18:45Z</time>
</trkpt>
<trkpt lat="54.836681" lon="25.458351">
<time>2022-05-17T10:18:46Z</time>
</trkpt>
<trkpt lat="54.836667" lon="25.458403">
<time>2022-05-17T10:18:47Z</time>
</trkpt>
<trkpt lat="54.836652" lon="25.458451">
<time>2022-05-17T10:18:48Z</time>
</trkpt>
<trkpt lat="54.836639" lon="25.458492">
<time>2022-05-17T10:18:49Z</time>
</trkpt>
<trkpt lat="54.836636" lon="25.458527">
<time>2022-05-17T10:18:50Z</time>
</trkpt>
<trkpt lat="54.836642" lon="25.458563">
<time>2022-05-17T10:18:51Z</time>
</trkpt>
<trkpt lat="54.836657" lon="25.458601">
<time>2022-05-17T10:18:52Z</time>
</trkpt>
<trkpt lat="54.836672" lon="25.458651">
<time>2022-05-17T10:18:53Z</time>
</trkpt>
<trkpt lat="54.836687" lon="25.458706">
<time>2022-05-17T10:18:54Z</time>
</trkpt>
<trkpt lat="54.836703" lon="25.458763">
<time>2022-05-17T10:18:55Z</time>
</trkpt>
<trkpt lat="54.836718" lon="25.458821">
<time>2022-05-17T10:18:56Z</time>
</trkpt>
<trkpt lat="54.83672" lon="25.458886">
<time>2022-05-17T10:18:57Z</time>
</trkpt>
<trkpt lat="54.836702" lon="25.458951">
<time>2022-05-17T10:18:58Z</time>
</trkpt>
<trkpt lat="54.836666" lon="25.459009">
<time>2022-05-17T10:18:59Z</time>
</trkpt>
<trkpt lat="54.836628" lon="25.459051">
<time>2022-05-17T10:19:00Z</time>
</trkpt>
<trkpt lat="54.836592" lon="25.459091">
<time>2022-05-17T10:19:01Z</time>
</trkpt>
<trkpt lat="54.836561" lon="25.459129">
<time>2022-05-17T10:19:02Z</time>
</trkpt>
<trkpt lat="54.836532" lon="25.459168">
<time>2022-05-17T10:19:03Z</time>
</trkpt>
<trkpt lat="54.836496" lon="25.4592">
<time>2022-05-17T10:19:04Z</time>
</trkpt>
<trkpt lat="54.836457" lon="25.459225">
<time>2022-05-17T10:19:05Z</time>
</trkpt>
<trkpt lat="54.836415" lon="25.459245">
<time>2022-05-17T10:19:06Z</time>
</trkpt>
<trkpt lat="54.836373" lon="25.459262">
<time>2022-05-17T10:19:07Z</time>
</trkpt>
<trkpt lat="54.83633" lon="25.459272">
<time>2022-05-17T10:19:08Z</time>
</trkpt>
<trkpt lat="54.836283" lon="25.45928">
<time>2022-05-17T10:19:09Z</time>
</trkpt>
<trkpt lat="54.836237" lon="25.459291">
<time>2022-05-17T10:19:10Z</time>
</trkpt>
<trkpt lat="54.836191" lon="25.459307">
<time>2022-05-17T10:19:11Z</time>
</trkpt>
<trkpt lat="54.836147" lon="25.459321">
<time>2022-05-17T10:19:12Z</time>
</trkpt>
<trkpt lat="54.836105" lon="25.459327">
<time>2022-05-17T10:19:13Z</time>
</trkpt>
<trkpt lat="54.836057" lon="25.459312">
<time>2022-05-17T10:19:14Z</time>
</trkpt>
<trkpt lat="54.83601" lon="25.459277">
<time>2022-05-17T10:19:15Z</time>
</trkpt>
<trkpt lat="54.835972" lon="25.459207">
<time>2022-05-17T10:19:16Z</time>
</trkpt>
<trkpt lat="54.835969" lon="25.459101">
<time>2022-05-17T10:19:17Z</time>
</trkpt>
<trkpt lat="54.835993" lon="25.458969">
<time>2022-05-17T10:19:18Z</time>
</trkpt>
<trkpt lat="54.836027" lon="25.458845">
<time>2022-05-17T10:19:19Z</time>
</trkpt>
<trkpt lat="54.836044" lon="25.458755">
<time>2022-05-17T10:19:20Z</time>
</trkpt>
<trkpt lat="54.836054" lon="25.458687">
<time>2022-05-17T10:19:21Z</time>
</trkpt>
<trkpt lat="54.836065" lon="25.458627">
<time>2022-05-17T10:19:22Z</time>
</trkpt>
<trkpt lat="54.836081" lon="25.458566">
<time>2022-05-17T10:19:23Z</time>
</trkpt>
<trkpt lat="54.836095" lon="25.458502">
<time>2022-05-17T10:19:24Z</time>
</trkpt>
<trkpt lat="54.836109" lon="25.458438">
<time>2022-05-17T10:19:25Z</time>
</trkpt>
<trkpt lat="54.836123" lon="25.458372">
<time>2022-05-17T10:19:26Z</time>
</trkpt>
<trkpt lat="54.836134" lon="25.458303">
<time>2022-05-17T10:19:27Z</time>
</trkpt>
<trkpt lat="54.836143" lon="25.45823">
<time>2022-05-17T10:19:28Z</time>
</trkpt>
<trkpt lat="54.836147" lon="25.458156">
<time>2022-05-17T10:19:29Z</time>
</trkpt>
<trkpt lat="54.836144" lon="25.458081">
<time>2022-05-17T10:19:30Z</time>
</trkpt>
<trkpt lat="54.836128" lon="25.458013">
<time>2022-05-17T10:19:31Z</time>
</trkpt>
<trkpt lat="54.836098" lon="25.457953">
<time>2022-05-17T10:19:32Z</time>
</trkpt>
<trkpt lat="54.836062" lon="25.457899">
<time>2022-05-17T10:19:33Z</time>
</trkpt>
<trkpt lat="54.836025" lon="25.457849">
<time>2022-05-17T10:19:34Z</time>
</trkpt>
<trkpt lat="54.835991" lon="25.457802">
<time>2022-05-17T10:19:35Z</time>
</trkpt>
<trkpt lat="54.835957" lon="25.457759">
<time>2022-05-17T10:19:36Z</time>
</trkpt>
<trkpt lat="54.835922" lon="25.457722">
<time>2022-05-17T10:19:37Z</time>
</trkpt>
<trkpt lat="54.835888" lon="25.457691">
<time>2022-05-17T10:19:38Z</time>
</trkpt>
<trkpt lat="54.835851" lon="25.457672">
<time>2022-05-17T10:19:39Z</time>
</trkpt>
<trkpt lat="54.835813" lon="25.457669">
<time>2022-05-17T10:19:40Z</time>
</trkpt>
<trkpt lat="54.835772" lon="25.457679">
<time>2022-05-17T10:19:41Z</time>
</trkpt>
<trkpt lat="54.83573" lon="25.457697">
<time>2022-05-17T10:19:42Z</time>
</trkpt>
<trkpt lat="54.835689" lon="25.457716">
<time>2022-05-17T10:19:43Z</time>
</trkpt>
<trkpt lat="54.835649" lon="25.457738">
<time>2022-05-17T10:19:44Z</time>
</trkpt>
<trkpt lat="54.835609" lon="25.457758">
<time>2022-05-17T10:19:45Z</time>
</trkpt>
<trkpt lat="54.835568" lon="25.457775">
<time>2022-05-17T10:19:46Z</time>
</trkpt>
<trkpt lat="54.835526" lon="25.45779">
<time>2022-05-17T10:19:47Z</time>
</trkpt>
<trkpt lat="54.835485" lon="25.457801">
<time>2022-05-17T10:19:48Z</time>
</trkpt>
<trkpt lat="54.835449" lon="25.457812">
<time>2022-05-17T10:19:49Z</time>
</trkpt>
<trkpt lat="54.835416" lon="25.457822">
<time>2022-05-17T10:19:50Z</time>
</trkpt>
<trkpt lat="54.835383" lon="25.457834">
<time>2022-05-17T10:19:51Z</time>
</trkpt>
<trkpt lat="54.835351" lon="25.457842">
<time>2022-05-17T10:19:52Z</time>
</trkpt>
<trkpt lat="54.835319" lon="25.457839">
<time>2022-05-17T10:19:53Z</time>
</trkpt>
<trkpt lat="54.835293" lon="25.457817">
<time>2022-05-17T10:19:54Z</time>
</trkpt>
<trkpt lat="54.835282" lon="25.457767">
<time>2022-05-17T10:19:55Z</time>
</trkpt>
<trkpt lat="54.835306" lon="25.457675">
<time>2022-05-17T10:19:56Z</time>
</trkpt>
<trkpt lat="54.835338" lon="25.457585">
<time>2022-05-17T10:19:57Z</time>
</trkpt>
<trkpt lat="54.835369" lon="25.457512">
<time>2022-05-17T10:19:58Z</time>
</trkpt>
<trkpt lat="54.835384" lon="25.457467">
<time>2022-05-17T10:19:59Z</time>
</trkpt>
<trkpt lat="54.835398" lon="25.457423">
<time>2022-05-17T10:20:00Z</time>
</trkpt>
<trkpt lat="54.835413" lon="25.457367">
<time>2022-05-17T10:20:01Z</time>
</trkpt>
<trkpt lat="54.835421" lon="25.457308">
<time>2022-05-17T10:20:02Z</time>
</trkpt>
<trkpt lat="54.83543" lon="25.457243">
<time>2022-05-17T10:20:03Z</time>
</trkpt>
<trkpt lat="54.83544" lon="25.457185">
<time>2022-05-17T10:20:04Z</time>
</trkpt>
<trkpt lat="54.83545" lon="25.457133">
<time>2022-05-17T10:20:05Z</time>
</trkpt>
<trkpt lat="54.835452" lon="25.457085">
<time>2022-05-17T10:20:06Z</time>
</trkpt>
<trkpt lat="54.835447" lon="25.457043">
<time>2022-05-17T10:20:07Z</time>
</trkpt>
<trkpt lat="54.835437" lon="25.457009">
<time>2022-05-17T10:20:08Z</time>
</trkpt>
<trkpt lat="54.835426" lon="25.456982">
<time>2022-05-17T10:20:09Z</time>
</trkpt>
<trkpt lat="54.835407" lon="25.456953">
<time>2022-05-17T10:20:10Z</time>
</trkpt>
<trkpt lat="54.835382" lon="25.456921">
<time>2022-05-17T10:20:11Z</time>
</trkpt>
<trkpt lat="54.835356" lon="25.456891">
<time>2022-05-17T10:20:12Z</time>
</trkpt>
<trkpt lat="54.835329" lon="25.456859">
<time>2022-05-17T10:20:13Z</time>
</trkpt>
<trkpt lat="54.8353" lon="25.456818">
<time>2022-05-17T10:20:14Z</time>
</trkpt>
<trkpt lat="54.835271" lon="25.456759">
<time>2022-05-17T10:20:15Z</time>
</trkpt>
<trkpt lat="54.835255" lon="25.456684">
<time>2022-05-17T10:20:16Z</time>
</trkpt>
<trkpt lat="54.835247" lon="25.456605">
<time>2022-05-17T10:20:17Z</time>
</trkpt>
<trkpt lat="54.835241" lon="25.456529">
<time>2022-05-17T10:20:18Z</time>
</trkpt>
<trkpt lat="54.835232" lon="25.456456">
<time>2022-05-17T10:20:19Z</time>
</trkpt>
<trkpt lat="54.835223" lon="25.45639">
<time>2022-05-17T10:20:20Z</time>
</trkpt>
<trkpt lat="54.835217" lon="25.456328">
<time>2022-05-17T10:20:21Z</time>
</trkpt>
<trkpt lat="54.83522" lon="25.456274">
<time>2022-05-17T10:20:22Z</time>
</trkpt>
<trkpt lat="54.835235" lon="25.456229">
<time>2022-05-17T10:20:23Z</time>
</trkpt>
<trkpt lat="54.835262" lon="25.456193">
<time>2022-05-17T10:20:24Z</time>
</trkpt>
<trkpt lat="54.835291" lon="25.456162">
<time>2022-05-17T10:20:25Z</time>
</trkpt>
<trkpt lat="54.835317" lon="25.456125">
<time>2022-05-17T10:20:26Z</time>
</trkpt>
<trkpt lat="54.835338" lon="25.456083">
<time>2022-05-17T10:20:27Z</time>
</trkpt>
<trkpt lat="54.835362" lon="25.45604">
<time>2022-05-17T10:20:28Z</time>
</trkpt>
<trkpt lat="54.835389" lon="25.455996">
<time>2022-05-17T10:20:29Z</time>
</trkpt>
<trkpt lat="54.835419" lon="25.455953">
<time>2022-05-17T10:20:30Z</time>
</trkpt>
<trkpt lat="54.835449" lon="25.455916">
<time>2022-05-17T10:20:31Z</time>
</trkpt>
<trkpt lat="54.835483" lon="25.455891">
<time>2022-05-17T10:20:32Z</time>
</trkpt>
<trkpt lat="54.835521" lon="25.455872">
<time>2022-05-17T10:20:33Z</time>
</trkpt>
<trkpt lat="54.835559" lon="25.45586">
<time>2022-05-17T10:20:34Z</time>
</trkpt>
<trkpt lat="54.835597" lon="25.455851">
<time>2022-05-17T10:20:35Z</time>
</trkpt>
<trkpt lat="54.835631" lon="25.45585">
<time>2022-05-17T10:20:36Z</time>
</trkpt>
<trkpt lat="54.835666" lon="25.455849">
<time>2022-05-17T10:20:37Z</time>
</trkpt>
<trkpt lat="54.835696" lon="25.45584">
<time>2022-05-17T10:20:38Z</time>
</trkpt>
<trkpt lat="54.83572" lon="25.455808">
<time>2022-05-17T10:20:39Z</time>
</trkpt>
<trkpt lat="54.835734" lon="25.455752">
<time>2022-05-17T10:20:40Z</time>
</trkpt>
<trkpt lat="54.835739" lon="25.455686">
<time>2022-05-17T10:20:41Z</time>
</trkpt>
<trkpt lat="54.835739" lon="25.455619">
<time>2022-05-17T10:20:42Z</time>
</trkpt>
<trkpt lat="54.835742" lon="25.45556">
<time>2022-05-17T10:20:43Z</time>
</trkpt>
<trkpt lat="54.835743" lon="25.455499">
<time>2022-05-17T10:20:44Z</time>
</trkpt>
<trkpt lat="54.835743" lon="25.455432">
<time>2022-05-17T10:20:45Z</time>
</trkpt>
<trkpt lat="54.835739" lon="25.455362">
<time>2022-05-17T10:20:46Z</time>
</trkpt>
<trkpt lat="54.835734" lon="25.455292">
<time>2022-05-17T10:20:47Z</time>
</trkpt>
<trkpt lat="54.835725" lon="25.455227">
<time>2022-05-17T10:20:48Z</time>
</trkpt>
<trkpt lat="54.835712" lon="25.455164">
<time>2022-05-17T10:20:49Z</time>
</trkpt>
<trkpt lat="54.8357" lon="25.455099">
<time>2022-05-17T10:20:50Z</time>
</trkpt>
<trkpt lat="54.835689" lon="25.455032">
<time>2022-05-17T10:20:51Z</time>
</trkpt>
<trkpt lat="54.835677" lon="25.454966">
<time>2022-05-17T10:20:52Z</time>
</trkpt>
<trkpt lat="54.83566" lon="25.4549">
<time>2022-05-17T10:20:53Z</time>
</trkpt>
<trkpt lat="54.835644" lon="25.454838">
<time>2022-05-17T10:20:54Z</time>
</trkpt>
<trkpt lat="54.83563" lon="25.454777">
<time>2022-05-17T10:20:55Z</time>
</trkpt>
<trkpt lat="54.83562" lon="25.454713">
<time>2022-05-17T10:20:56Z</time>
</trkpt>
<trkpt lat="54.835609" lon="25.454646">
<time>2022-05-17T10:20:57Z</time>
</trkpt>
<trkpt lat="54.835597" lon="25.454576">
<time>2022-05-17T10:20:58Z</time>
</trkpt>
<trkpt lat="54.835583" lon="25.454503">
<time>2022-05-17T10:20:59Z</time>
</trkpt>
<trkpt lat="54.835569" lon="25.454427">
<time>2022-05-17T10:21:00Z</time>
</trkpt>
<trkpt lat="54.835554" lon="25.454352">
<time>2022-05-17T10:21:01Z</time>
</trkpt>
<trkpt lat="54.835544" lon="25.454277">
<time>2022-05-17T10:21:02Z</time>
</trkpt>
<trkpt lat="54.835541" lon="25.454202">
<time>2022-05-17T10:21:03Z</time>
</trkpt>
<trkpt lat="54.835549" lon="25.454128">
<time>2022-05-17T10:21:04Z</time>
</trkpt>
<trkpt lat="54.835565" lon="25.454057">
<time>2022-05-17T10:21:05Z</time>
</trkpt>
<trkpt lat="54.835584" lon="25.453991">
<time>2022-05-17T10:21:06Z</time>
</trkpt>
<trkpt lat="54.835605" lon="25.453927">
<time>2022-05-17T10:21:07Z</time>
</trkpt>
<trkpt lat="54.835628" lon="25.453872">
<time>2022-05-17T10:21:08Z</time>
</trkpt>
<trkpt lat="54.835658" lon="25.45383">
<time>2022-05-17T10:21:09Z</time>
</trkpt>
<trkpt lat="54.835694" lon="25.453805">
<time>2022-05-17T10:21:10Z</time>
</trkpt>
<trkpt lat="54.835734" lon="25.453791">
<time>2022-05-17T10:21:11Z</time>
</trkpt>
<trkpt lat="54.835776" lon="25.453781">
<time>2022-05-17T10:21:12Z</time>
</trkpt>
<trkpt lat="54.835822" lon="25.453777">
<time>2022-05-17T10:21:13Z</time>
</trkpt>
<trkpt lat="54.835867" lon="25.453779">
<time>2022-05-17T10:21:14Z</time>
</trkpt>
<trkpt lat="54.835909" lon="25.453775">
<time>2022-05-17T10:21:15Z</time>
</trkpt>
<trkpt lat="54.83595" lon="25.453765">
<time>2022-05-17T10:21:16Z</time>
</trkpt>
<trkpt lat="54.83599" lon="25.453744">
<time>2022-05-17T10:21:17Z</time>
</trkpt>
<trkpt lat="54.836028" lon="25.453724">
<time>2022-05-17T10:21:18Z</time>
</trkpt>
<trkpt lat="54.836066" lon="25.4537">
<time>2022-05-17T10:21:19Z</time>
</trkpt>
<trkpt lat="54.836104" lon="25.453673">
<time>2022-05-17T10:21:20Z</time>
</trkpt>
<trkpt lat="54.83614" lon="25.45364">
<time>2022-05-17T10:21:21Z</time>
</trkpt>
<trkpt lat="54.836173" lon="25.453597">
<time>2022-05-17T10:21:22Z</time>
</trkpt>
<trkpt lat="54.836203" lon="25.453549">
<time>2022-05-17T10:21:23Z</time>
</trkpt>
<trkpt lat="54.836228" lon="25.453501">
<time>2022-05-17T10:21:24Z</time>
</trkpt>
<trkpt lat="54.83625" lon="25.453457">
<time>2022-05-17T10:21:25Z</time>
</trkpt>
<trkpt lat="54.836264" lon="25.453403">
<time>2022-05-17T10:21:26Z</time>
</trkpt>
<trkpt lat="54.836274" lon="25.453338">
<time>2022-05-17T10:21:27Z</time>
</trkpt>
<trkpt lat="54.836285" lon="25.453263">
<time>2022-05-17T10:21:28Z</time>
</trkpt>
<trkpt lat="54.836304" lon="25.45319">
<time>2022-05-17T10:21:29Z</time>
</trkpt>
<trkpt lat="54.836334" lon="25.453116">
<time>2022-05-17T10:21:30Z</time>
</trkpt>
<trkpt lat="54.836375" lon="25.453048">
<time>2022-05-17T10:21:31Z</time>
</trkpt>
<trkpt lat="54.83642" lon="25.452989">
<time>2022-05-17T10:21:32Z</time>
</trkpt>
<trkpt lat="54.836466" lon="25.452941">
<time>2022-05-17T10:21:33Z</time>
</trkpt>
<trkpt lat="54.836505" lon="25.452901">
<time>2022-05-17T10:21:34Z</time>
</trkpt>
<trkpt lat="54.83654" lon="25.452863">
<time>2022-05-17T10:21:35Z</time>
</trkpt>
<trkpt lat="54.836568" lon="25.452822">
<time>2022-05-17T10:21:36Z</time>
</trkpt>
<trkpt lat="54.836592" lon="25.452773">
<time>2022-05-17T10:21:37Z</time>
</trkpt>
<trkpt lat="54.836615" lon="25.452713">
<time>2022-05-17T10:21:38Z</time>
</trkpt>
<trkpt lat="54.836636" lon="25.452647">
<time>2022-05-17T10:21:39Z</time>
</trkpt>
<trkpt lat="54.836655" lon="25.452577">
<time>2022-05-17T10:21:40Z</time>
</trkpt>
<trkpt lat="54.836672" lon="25.452511">
<time>2022-05-17T10:21:41Z</time>
</trkpt>
<trkpt lat="54.836685" lon="25.45245">
<time>2022-05-17T10:21:42Z</time>
</trkpt>
<trkpt lat="54.836692" lon="25.452389">
<time>2022-05-17T10:21:43Z</time>
</trkpt>
<trkpt lat="54.836685" lon="25.452318">
<time>2022-05-17T10:21:44Z</time>
</trkpt>
<trkpt lat="54.836672" lon="25.45224">
<time>2022-05-17T10:21:45Z</time>
</trkpt>
<trkpt lat="54.836658" lon="25.45216">
<time>2022-05-17T10:21:46Z</time>
</trkpt>
<trkpt lat="54.836649" lon="25.452085">
<time>2022-05-17T10:21:47Z</time>
</trkpt>
<trkpt lat="54.836639" lon="25.45201">
<time>2022-05-17T10:21:48Z</time>
</trkpt>
<trkpt lat="54.836627" lon="25.451936">
<time>2022-05-17T10:21:49Z</time>
</trkpt>
<trkpt lat="54.836614" lon="25.451858">
<time>2022-05-17T10:21:50Z</time>
</trkpt>
<trkpt lat="54.836597" lon="25.451781">
<time>2022-05-17T10:21:51Z</time>
</trkpt>
<trkpt lat="54.836579" lon="25.451704">
<time>2022-05-17T10:21:52Z</time>
</trkpt>
<trkpt lat="54.836559" lon="25.451629">
<time>2022-05-17T10:21:53Z</time>
</trkpt>
<trkpt lat="54.836545" lon="25.451556">
<time>2022-05-17T10:21:54Z</time>
</trkpt>
<trkpt lat="54.83653" lon="25.451485">
<time>2022-05-17T10:21:55Z</time>
</trkpt>
<trkpt lat="54.836516" lon="25.451419">
<time>2022-05-17T10:21:56Z</time>
</trkpt>
<trkpt lat="54.836502" lon="25.451353">
<time>2022-05-17T10:21:57Z</time>
</trkpt>
<trkpt lat="54.836488" lon="25.451291">
<time>2022-05-17T10:21:58Z</time>
</trkpt>
<trkpt lat="54.836469" lon="25.451234">
<time>2022-05-17T10:21:59Z</time>
</trkpt>
<trkpt lat="54.836446" lon="25.451179">
<time>2022-05-17T10:22:00Z</time>
</trkpt>
<trkpt lat="54.836423" lon="25.451122">
<time>2022-05-17T10:22:01Z</time>
</trkpt>
<trkpt lat="54.836406" lon="25.45106">
<time>2022-05-17T10:22:02Z</time>
</trkpt>
<trkpt lat="54.836398" lon="25.450991">
<time>2022-05-17T10:22:03Z</time>
</trkpt>
<trkpt lat="54.836398" lon="25.45092">
<time>2022-05-17T10:22:04Z</time>
</trkpt>
<trkpt lat="54.836397" lon="25.450844">
<time>2022-05-17T10:22:05Z</time>
</trkpt>
<trkpt lat="54.836389" lon="25.450766">
<time>2022-05-17T10:22:06Z</time>
</trkpt>
<trkpt lat="54.836377" lon="25.450687">
<time>2022-05-17T10:22:07Z</time>
</trkpt>
<trkpt lat="54.836367" lon="25.450612">
<time>2022-05-17T10:22:08Z</time>
</trkpt>
<trkpt lat="54.836352" lon="25.450541">
<time>2022-05-17T10:22:09Z</time>
</trkpt>
<trkpt lat="54.836327" lon="25.450475">
<time>2022-05-17T10:22:10Z</time>
</trkpt>
<trkpt lat="54.836292" lon="25.450417">
<time>2022-05-17T10:22:11Z</time>
</trkpt>
<trkpt lat="54.836261" lon="25.450354">
<time>2022-05-17T10:22:12Z</time>
</trkpt>
<trkpt lat="54.836238" lon="25.450282">
<time>2022-05-17T10:22:13Z</time>
</trkpt>
<trkpt lat="54.836215" lon="25.450206">
<time>2022-05-17T10:22:14Z</time>
</trkpt>
<trkpt lat="54.836184" lon="25.450143">
<time>2022-05-17T10:22:15Z</time>
</trkpt>
<trkpt lat="54.836141" lon="25.450094">
<time>2022-05-17T10:22:16Z</time>
</trkpt>
<trkpt lat="54.836097" lon="25.45005">
<time>2022-05-17T10:22:17Z</time>
</trkpt>
<trkpt lat="54.836054" lon="25.450003">
<time>2022-05-17T10:22:18Z</time>
</trkpt>
<trkpt lat="54.836012" lon="25.449951">
<time>2022-05-17T10:22:19Z</time>
</trkpt>
<trkpt lat="54.835966" lon="25.449903">
<time>2022-05-17T10:22:20Z</time>
</trkpt>
<trkpt lat="54.835915" lon="25.44986">
<time>2022-05-17T10:22:21Z</time>
</trkpt>
<trkpt lat="54.835865" lon="25.449821">
<time>2022-05-17T10:22:22Z</time>
</trkpt>
<trkpt lat="54.835817" lon="25.449783">
<time>2022-05-17T10:22:23Z</time>
</trkpt>
<trkpt lat="54.83577" lon="25.449745">
<time>2022-05-17T10:22:24Z</time>
</trkpt>
<trkpt lat="54.835723" lon="25.449708">
<time>2022-05-17T10:22:25Z</time>
</trkpt>
<trkpt lat="54.835677" lon="25.449682">
<time>2022-05-17T10:22:26Z</time>
</trkpt>
<trkpt lat="54.835632" lon="25.449669">
<time>2022-05-17T10:22:27Z</time>
</trkpt>
<trkpt lat="54.835586" lon="25.449669">
<time>2022-05-17T10:22:28Z</time>
</trkpt>
<trkpt lat="54.835541" lon="25.449671">
<time>2022-05-17T10:22:29Z</time>
</trkpt>
<trkpt lat="54.835495" lon="25.449681">
<time>2022-05-17T10:22:30Z</time>
</trkpt>
<trkpt lat="54.835446" lon="25.449695">
<time>2022-05-17T10:22:31Z</time>
</trkpt>
<trkpt lat="54.835398" lon="25.449711">
<time>2022-05-17T10:22:32Z</time>
</trkpt>
<trkpt lat="54.835352" lon="25.449723">
<time>2022-05-17T10:22:33Z</time>
</trkpt>
<trkpt lat="54.835313" lon="25.44974">
<time>2022-05-17T10:22:34Z</time>
</trkpt>
<trkpt lat="54.835277" lon="25.449755">
<time>2022-05-17T10:22:35Z</time>
</trkpt>
<trkpt lat="54.835242" lon="25.449771">
<time>2022-05-17T10:22:36Z</time>
</trkpt>
<trkpt lat="54.835203" lon="25.449786">
<time>2022-05-17T10:22:37Z</time>
</trkpt>
<trkpt lat="54.835161" lon="25.449808">
<time>2022-05-17T10:22:38Z</time>
</trkpt>
<trkpt lat="54.835117" lon="25.449838">
<time>2022-05-17T10:22:39Z</time>
</trkpt>
<trkpt lat="54.835073" lon="25.449871">
<time>2022-05-17T10:22:40Z</time>
</trkpt>
<trkpt lat="54.835029" lon="25.449906">
<time>2022-05-17T10:22:41Z</time>
</trkpt>
<trkpt lat="54.834988" lon="25.449944">
<time>2022-05-17T10:22:42Z</time>
</trkpt>
<trkpt lat="54.834948" lon="25.449992">
<time>2022-05-17T10:22:43Z</time>
</trkpt>
<trkpt lat="54.834908" lon="25.450046">
<time>2022-05-17T10:22:44Z</time>
</trkpt>
<trkpt lat="54.834869" lon="25.4501">
<time>2022-05-17T10:22:45Z</time>
</trkpt>
<trkpt lat="54.834831" lon="25.450149">
<time>2022-05-17T10:22:46Z</time>
</trkpt>
<trkpt lat="54.834792" lon="25.450192">
<time>2022-05-17T10:22:47Z</time>
</trkpt>
<trkpt lat="54.834754" lon="25.450232">
<time>2022-05-17T10:22:48Z</time>
</trkpt>
<trkpt lat="54.834715" lon="25.450263">
<time>2022-05-17T10:22:49Z</time>
</trkpt>
<trkpt lat="54.834678" lon="25.450288">
<time>2022-05-17T10:22:50Z</time>
</trkpt>
<trkpt lat="54.834639" lon="25.450309">
<time>2022-05-17T10:22:51Z</time>
</trkpt>
<trkpt lat="54.8346" lon="25.450331">
<time>2022-05-17T10:22:52Z</time>
</trkpt>
<trkpt lat="54.834559" lon="25.450348">
<time>2022-05-17T10:22:53Z</time>
</trkpt>
<trkpt lat="54.834514" lon="25.450361">
<time>2022-05-17T10:22:54Z</time>
</trkpt>
<trkpt lat="54.83447" lon="25.450374">
<time>2022-05-17T10:22:55Z</time>
</trkpt>
<trkpt lat="54.834429" lon="25.45039">
<time>2022-05-17T10:22:56Z</time>
</trkpt>
<trkpt lat="54.834397" lon="25.450412">
<time>2022-05-17T10:22:57Z</time>
</trkpt>
<trkpt lat="54.83437" lon="25.450438">
<time>2022-05-17T10:22:58Z</time>
</trkpt>
<trkpt lat="54.834347" lon="25.450473">
<time>2022-05-17T10:22:59Z</time>
</trkpt>
<trkpt lat="54.834327" lon="25.450513">
<time>2022-05-17T10:23:00Z</time>
</trkpt>
<trkpt lat="54.834311" lon="25.450557">
<time>2022-05-17T10:23:01Z</time>
</trkpt>
<trkpt lat="54.834297" lon="25.450599">
<time>2022-05-17T10:23:02Z</time>
</trkpt>
<trkpt lat="54.834283" lon="25.450632">
<time>2022-05-17T10:23:03Z</time>
</trkpt>
<trkpt lat="54.834272" lon="25.450649">
<time>2022-05-17T10:23:04Z</time>
</trkpt>
<trkpt lat="54.834269" lon="25.450647">
<time>2022-05-17T10:23:05Z</time>
</trkpt>
<trkpt lat="54.834272" lon="25.450632">
<time>2022-05-17T10:23:06Z</time>
</trkpt>
<trkpt lat="54.834284" lon="25.450609">
<time>2022-05-17T10:23:07Z</time>
</trkpt>
<trkpt lat="54.834298" lon="25.450581">
<time>2022-05-17T10:23:08Z</time>
</trkpt>
<trkpt lat="54.83431" lon="25.450548">
<time>2022-05-17T10:23:09Z</time>
</trkpt>
<trkpt lat="54.834318" lon="25.450513">
<time>2022-05-17T10:23:10Z</time>
</trkpt>
<trkpt lat="54.834326" lon="25.450475">
<time>2022-05-17T10:23:11Z</time>
</trkpt>
<trkpt lat="54.834336" lon="25.45044">
<time>2022-05-17T10:23:12Z</time>
</trkpt>
<trkpt lat="54.834347" lon="25.450414">
<time>2022-05-17T10:23:13Z</time>
</trkpt>
<trkpt lat="54.834362" lon="25.450394">
<time>2022-05-17T10:23:14Z</time>
</trkpt>
<trkpt lat="54.834379" lon="25.450379">
<time>2022-05-17T10:23:15Z</time>
</trkpt>
<trkpt lat="54.8344" lon="25.450363">
<time>2022-05-17T10:23:16Z</time>
</trkpt>
<trkpt lat="54.834421" lon="25.450345">
<time>2022-05-17T10:23:17Z</time>
</trkpt>
<trkpt lat="54.834447" lon="25.450327">
<time>2022-05-17T10:23:18Z</time>
</trkpt>
<trkpt lat="54.834476" lon="25.450305">
<time>2022-05-17T10:23:19Z</time>
</trkpt>
<trkpt lat="54.834506" lon="25.450284">
<time>2022-05-17T10:23:20Z</time>
</trkpt>
<trkpt lat="54.834535" lon="25.450261">
<time>2022-05-17T10:23:21Z</time>
</trkpt>
<trkpt lat="54.834566" lon="25.450231">
<time>2022-05-17T10:23:22Z</time>
</trkpt>
<trkpt lat="54.834596" lon="25.450197">
<time>2022-05-17T10:23:23Z</time>
</trkpt>
<trkpt lat="54.834627" lon="25.450159">
<time>2022-05-17T10:23:24Z</time>
</trkpt>
<trkpt lat="54.834665" lon="25.450116">
<time>2022-05-17T10:23:25Z</time>
</trkpt>
<trkpt lat="54.834708" lon="25.450067">
<time>2022-05-17T10:23:26Z</time>
</trkpt>
<trkpt lat="54.834759" lon="25.450008">
<time>2022-05-17T10:23:27Z</time>
</trkpt>
<trkpt lat="54.834814" lon="25.449949">
<time>2022-05-17T10:23:28Z</time>
</trkpt>
<trkpt lat="54.834872" lon="25.449894">
<time>2022-05-17T10:23:29Z</time>
</trkpt>
<trkpt lat="54.83493" lon="25.449843">
<time>2022-05-17T10:23:30Z</time>
</trkpt>
<trkpt lat="54.834987" lon="25.449796">
<time>2022-05-17T10:23:31Z</time>
</trkpt>
<trkpt lat="54.835043" lon="25.449754">
<time>2022-05-17T10:23:32Z</time>
</trkpt>
<trkpt lat="54.835102" lon="25.449718">
<time>2022-05-17T10:23:33Z</time>
</trkpt>
<trkpt lat="54.835163" lon="25.449689">
<time>2022-05-17T10:23:34Z</time>
</trkpt>
<trkpt lat="54.835227" lon="25.449663">
<time>2022-05-17T10:23:35Z</time>
</trkpt>
<trkpt lat="54.835289" lon="25.449638">
<time>2022-05-17T10:23:36Z</time>
</trkpt>
<trkpt lat="54.835348" lon="25.449614">
<time>2022-05-17T10:23:37Z</time>
</trkpt>
<trkpt lat="54.835403" lon="25.449588">
<time>2022-05-17T10:23:38Z</time>
</trkpt>
<trkpt lat="54.835458" lon="25.449568">
<time>2022-05-17T10:23:39Z</time>
</trkpt>
<trkpt lat="54.835513" lon="25.449561">
<time>2022-05-17T10:23:40Z</time>
</trkpt>
<trkpt lat="54.835572" lon="25.449574">
<time>2022-05-17T10:23:41Z</time>
</trkpt>
<trkpt lat="54.83563" lon="25.449608">
<time>2022-05-17T10:23:42Z</time>
</trkpt>
<trkpt lat="54.835685" lon="25.449653">
<time>2022-05-17T10:23:43Z</time>
</trkpt>
<trkpt lat="54.835737" lon="25.449704">
<time>2022-05-17T10:23:44Z</time>
</trkpt>
<trkpt lat="54.835789" lon="25.449753">
<time>2022-05-17T10:23:45Z</time>
</trkpt>
<trkpt lat="54.835839" lon="25.449807">
<time>2022-05-17T10:23:46Z</time>
</trkpt>
<trkpt lat="54.835891" lon="25.449863">
<time>2022-05-17T10:23:47Z</time>
</trkpt>
<trkpt lat="54.835944" lon="25.449919">
<time>2022-05-17T10:23:48Z</time>
</trkpt>
<trkpt lat="54.836005" lon="25.449957">
<time>2022-05-17T10:23:49Z</time>
</trkpt>
<trkpt lat="54.836067" lon="25.449979">
<time>2022-05-17T10:23:50Z</time>
</trkpt>
<trkpt lat="54.836132" lon="25.449987">
<time>2022-05-17T10:23:51Z</time>
</trkpt>
<trkpt lat="54.836197" lon="25.449988">
<time>2022-05-17T10:23:52Z</time>
</trkpt>
<trkpt lat="54.836262" lon="25.449986">
<time>2022-05-17T10:23:53Z</time>
</trkpt>
<trkpt lat="54.836327" lon="25.449979">
<time>2022-05-17T10:23:54Z</time>
</trkpt>
<trkpt lat="54.836389" lon="25.449974">
<time>2022-05-17T10:23:55Z</time>
</trkpt>
<trkpt lat="54.836446" lon="25.449968">
<time>2022-05-17T10:23:56Z</time>
</trkpt>
<trkpt lat="54.836503" lon="25.449957">
<time>2022-05-17T10:23:57Z</time>
</trkpt>
<trkpt lat="54.836559" lon="25.44994">
<time>2022-05-17T10:23:58Z</time>
</trkpt>
<trkpt lat="54.836617" lon="25.44991">
<time>2022-05-17T10:23:59Z</time>
</trkpt>
<trkpt lat="54.836677" lon="25.449879">
<time>2022-05-17T10:24:00Z</time>
</trkpt>
<trkpt lat="54.836739" lon="25.449847">
<time>2022-05-17T10:24:01Z</time>
</trkpt>
<trkpt lat="54.836805" lon="25.44982">
<time>2022-05-17T10:24:02Z</time>
</trkpt>
<trkpt lat="54.836865" lon="25.449797">
<time>2022-05-17T10:24:03Z</time>
</trkpt>
<trkpt lat="54.836923" lon="25.449773">
<time>2022-05-17T10:24:04Z</time>
</trkpt>
<trkpt lat="54.836975" lon="25.449747">
<time>2022-05-17T10:24:05Z</time>
</trkpt>
<trkpt lat="54.837024" lon="25.449719">
<time>2022-05-17T10:24:06Z</time>
</trkpt>
<trkpt lat="54.837075" lon="25.449688">
<time>2022-05-17T10:24:07Z</time>
</trkpt>
<trkpt lat="54.837125" lon="25.449663">
<time>2022-05-17T10:24:08Z</time>
</trkpt>
<trkpt lat="54.837183" lon="25.449634">
<time>2022-05-17T10:24:09Z</time>
</trkpt>
<trkpt lat="54.837248" lon="25.449605">
<time>2022-05-17T10:24:10Z</time>
</trkpt>
<trkpt lat="54.837318" lon="25.449575">
<time>2022-05-17T10:24:11Z</time>
</trkpt>
<trkpt lat="54.837387" lon="25.44955">
<time>2022-05-17T10:24:12Z</time>
</trkpt>
<trkpt lat="54.83745" lon="25.449534">
<time>2022-05-17T10:24:13Z</time>
</trkpt>
<trkpt lat="54.837516" lon="25.449524">
<time>2022-05-17T10:24:14Z</time>
</trkpt>
<trkpt lat="54.837585" lon="25.449512">
<time>2022-05-17T10:24:15Z</time>
</trkpt>
<trkpt lat="54.837653" lon="25.449508">
<time>2022-05-17T10:24:16Z</time>
</trkpt>
<trkpt lat="54.83772" lon="25.449499">
<time>2022-05-17T10:24:17Z</time>
</trkpt>
<trkpt lat="54.837781" lon="25.449499">
<time>2022-05-17T10:24:18Z</time>
</trkpt>
<trkpt lat="54.837839" lon="25.449491">
<time>2022-05-17T10:24:19Z</time>
</trkpt>
<trkpt lat="54.837887" lon="25.449467">
<time>2022-05-17T10:24:20Z</time>
</trkpt>
<trkpt lat="54.837921" lon="25.449414">
<time>2022-05-17T10:24:21Z</time>
</trkpt>
<trkpt lat="54.837934" lon="25.449332">
<time>2022-05-17T10:24:22Z</time>
</trkpt>
<trkpt lat="54.837931" lon="25.449238">
<time>2022-05-17T10:24:23Z</time>
</trkpt>
<trkpt lat="54.837926" lon="25.449137">
<time>2022-05-17T10:24:24Z</time>
</trkpt>
<trkpt lat="54.837925" lon="25.449038">
<time>2022-05-17T10:24:25Z</time>
</trkpt>
<trkpt lat="54.837923" lon="25.448933">
<time>2022-05-17T10:24:26Z</time>
</trkpt>
<trkpt lat="54.837917" lon="25.448834">
<time>2022-05-17T10:24:27Z</time>
</trkpt>
<trkpt lat="54.837907" lon="25.448735">
<time>2022-05-17T10:24:28Z</time>
</trkpt>
<trkpt lat="54.837902" lon="25.448628">
<time>2022-05-17T10:24:29Z</time>
</trkpt>
<trkpt lat="54.837903" lon="25.448511">
<time>2022-05-17T10:24:30Z</time>
</trkpt>
<trkpt lat="54.837906" lon="25.448393">
<time>2022-05-17T10:24:31Z</time>
</trkpt>
<trkpt lat="54.837909" lon="25.44828">
<time>2022-05-17T10:24:32Z</time>
</trkpt>
<trkpt lat="54.837914" lon="25.448161">
<time>2022-05-17T10:24:33Z</time>
</trkpt>
<trkpt lat="54.837921" lon="25.448038">
<time>2022-05-17T10:24:34Z</time>
</trkpt>
<trkpt lat="54.837929" lon="25.44791">
<time>2022-05-17T10:24:35Z</time>
</trkpt>
<trkpt lat="54.837935" lon="25.447785">
<time>2022-05-17T10:24:36Z</time>
</trkpt>
<trkpt lat="54.837939" lon="25.447662">
<time>2022-05-17T10:24:37Z</time>
</trkpt>
<trkpt lat="54.837938" lon="25.447541">
<time>2022-05-17T10:24:38Z</time>
</trkpt>
<trkpt lat="54.837936" lon="25.447423">
<time>2022-05-17T10:24:39Z</time>
</trkpt>
<trkpt lat="54.837935" lon="25.447306">
<time>2022-05-17T10:24:40Z</time>
</trkpt>
<trkpt lat="54.837933" lon="25.44719">
<time>2022-05-17T10:24:41Z</time>
</trkpt>
<trkpt lat="54.83793" lon="25.447078">
<time>2022-05-17T10:24:42Z</time>
</trkpt>
<trkpt lat="54.837926" lon="25.446969">
<time>2022-05-17T10:24:43Z</time>
</trkpt>
<trkpt lat="54.837924" lon="25.44686">
<time>2022-05-17T10:24:44Z</time>
</trkpt>
<trkpt lat="54.83792" lon="25.446747">
<time>2022-05-17T10:24:45Z</time>
</trkpt>
<trkpt lat="54.837909" lon="25.446633">
<time>2022-05-17T10:24:46Z</time>
</trkpt>
<trkpt lat="54.837888" lon="25.446525">
<time>2022-05-17T10:24:47Z</time>
</trkpt>
<trkpt lat="54.837849" lon="25.446438">
<time>2022-05-17T10:24:48Z</time>
</trkpt>
<trkpt lat="54.837802" lon="25.446359">
<time>2022-05-17T10:24:49Z</time>
</trkpt>
<trkpt lat="54.837751" lon="25.446286">
<time>2022-05-17T10:24:50Z</time>
</trkpt>
<trkpt lat="54.837701" lon="25.446208">
<time>2022-05-17T10:24:51Z</time>
</trkpt>
<trkpt lat="54.837647" lon="25.446134">
<time>2022-05-17T10:24:52Z</time>
</trkpt>
<trkpt lat="54.837586" lon="25.446065">
<time>2022-05-17T10:24:53Z</time>
</trkpt>
<trkpt lat="54.837528" lon="25.446003">
<time>2022-05-17T10:24:54Z</time>
</trkpt>
<trkpt lat="54.837475" lon="25.44594">
<time>2022-05-17T10:24:55Z</time>
</trkpt>
<trkpt lat="54.837426" lon="25.445875">
<time>2022-05-17T10:24:56Z</time>
</trkpt>
<trkpt lat="54.837375" lon="25.445808">
<time>2022-05-17T10:24:57Z</time>
</trkpt>
<trkpt lat="54.837324" lon="25.445746">
<time>2022-05-17T10:24:58Z</time>
</trkpt>
<trkpt lat="54.837269" lon="25.445689">
<time>2022-05-17T10:24:59Z</time>
</trkpt>
<trkpt lat="54.837212" lon="25.445638">
<time>2022-05-17T10:25:00Z</time>
</trkpt>
<trkpt lat="54.837152" lon="25.445594">
<time>2022-05-17T10:25:01Z</time>
</trkpt>
<trkpt lat="54.83709" lon="25.445559">
<time>2022-05-17T10:25:02Z</time>
</trkpt>
<trkpt lat="54.837029" lon="25.445527">
<time>2022-05-17T10:25:03Z</time>
</trkpt>
<trkpt lat="54.836968" lon="25.445489">
<time>2022-05-17T10:25:04Z</time>
</trkpt>
<trkpt lat="54.836911" lon="25.445446">
<time>2022-05-17T10:25:05Z</time>
</trkpt>
<trkpt lat="54.836856" lon="25.445403">
<time>2022-05-17T10:25:06Z</time>
</trkpt>
<trkpt lat="54.836801" lon="25.445363">
<time>2022-05-17T10:25:07Z</time>
</trkpt>
<trkpt lat="54.836748" lon="25.445321">
<time>2022-05-17T10:25:08Z</time>
</trkpt>
<trkpt lat="54.836695" lon="25.445283">
<time>2022-05-17T10:25:09Z</time>
</trkpt>
<trkpt lat="54.836641" lon="25.445252">
<time>2022-05-17T10:25:10Z</time>
</trkpt>
<trkpt lat="54.836586" lon="25.445234">
<time>2022-05-17T10:25:11Z</time>
</trkpt>
<trkpt lat="54.83653" lon="25.445228">
<time>2022-05-17T10:25:12Z</time>
</trkpt>
<trkpt lat="54.836476" lon="25.445233">
<time>2022-05-17T10:25:13Z</time>
</trkpt>
<trkpt lat="54.836425" lon="25.445249">
<time>2022-05-17T10:25:14Z</time>
</trkpt>
<trkpt lat="54.836378" lon="25.445278">
<time>2022-05-17T10:25:15Z</time>
</trkpt>
<trkpt lat="54.836339" lon="25.445327">
<time>2022-05-17T10:25:16Z</time>
</trkpt>
<trkpt lat="54.836304" lon="25.445383">
<time>2022-05-17T10:25:17Z</time>
</trkpt>
<trkpt lat="54.836268" lon="25.445451">
<time>2022-05-17T10:25:18Z</time>
</trkpt>
<trkpt lat="54.836227" lon="25.445513">
<time>2022-05-17T10:25:19Z</time>
</trkpt>
<trkpt lat="54.836195" lon="25.445569">
<time>2022-05-17T10:25:20Z</time>
</trkpt>
<trkpt lat="54.836172" lon="25.445608">
<time>2022-05-17T10:25:21Z</time>
</trkpt>
<trkpt lat="54.836158" lon="25.445639">
<time>2022-05-17T10:25:22Z</time>
</trkpt>
<trkpt lat="54.836158" lon="25.445653">
<time>2022-05-17T10:25:23Z</time>
</trkpt>
<trkpt lat="54.836166" lon="25.445646">
<time>2022-05-17T10:25:24Z</time>
</trkpt>
<trkpt lat="54.836177" lon="25.445626">
<time>2022-05-17T10:25:25Z</time>
</trkpt>
<trkpt lat="54.836182" lon="25.445603">
<time>2022-05-17T10:25:26Z</time>
</trkpt>
<trkpt lat="54.836188" lon="25.445583">
<time>2022-05-17T10:25:27Z</time>
</trkpt>
<trkpt lat="54.836197" lon="25.44555">
<time>2022-05-17T10:25:28Z</time>
</trkpt>
<trkpt lat="54.836218" lon="25.445506">
<time>2022-05-17T10:25:29Z</time>
</trkpt>
<trkpt lat="54.836249" lon="25.445453">
<time>2022-05-17T10:25:30Z</time>
</trkpt>
<trkpt lat="54.836291" lon="25.4454">
<time>2022-05-17T10:25:31Z</time>
</trkpt>
<trkpt lat="54.836336" lon="25.445363">
<time>2022-05-17T10:25:32Z</time>
</trkpt>
<trkpt lat="54.83639" lon="25.445339">
<time>2022-05-17T10:25:33Z</time>
</trkpt>
<trkpt lat="54.836449" lon="25.445336">
<time>2022-05-17T10:25:34Z</time>
</trkpt>
<trkpt lat="54.836518" lon="25.445347">
<time>2022-05-17T10:25:35Z</time>
</trkpt>
<trkpt lat="54.836583" lon="25.445367">
<time>2022-05-17T10:25:36Z</time>
</trkpt>
<trkpt lat="54.836642" lon="25.445394">
<time>2022-05-17T10:25:37Z</time>
</trkpt>
<trkpt lat="54.836694" lon="25.445423">
<time>2022-05-17T10:25:38Z</time>
</trkpt>
<trkpt lat="54.836743" lon="25.44546">
<time>2022-05-17T10:25:39Z</time>
</trkpt>
<trkpt lat="54.836792" lon="25.4455">
<time>2022-05-17T10:25:40Z</time>
</trkpt>
<trkpt lat="54.83684" lon="25.445537">
<time>2022-05-17T10:25:41Z</time>
</trkpt>
<trkpt lat="54.836893" lon="25.445567">
<time>2022-05-17T10:25:42Z</time>
</trkpt>
<trkpt lat="54.836949" lon="25.445591">
<time>2022-05-17T10:25:43Z</time>
</trkpt>
<trkpt lat="54.837011" lon="25.445612">
<time>2022-05-17T10:25:44Z</time>
</trkpt>
<trkpt lat="54.837077" lon="25.445637">
<time>2022-05-17T10:25:45Z</time>
</trkpt>
<trkpt lat="54.837141" lon="25.44567">
<time>2022-05-17T10:25:46Z</time>
</trkpt>
<trkpt lat="54.8372" lon="25.445709">
<time>2022-05-17T10:25:47Z</time>
</trkpt>
<trkpt lat="54.83725" lon="25.445762">
<time>2022-05-17T10:25:48Z</time>
</trkpt>
<trkpt lat="54.8373" lon="25.44582">
<time>2022-05-17T10:25:49Z</time>
</trkpt>
<trkpt lat="54.83735" lon="25.445879">
<time>2022-05-17T10:25:50Z</time>
</trkpt>
<trkpt lat="54.837405" lon="25.445931">
<time>2022-05-17T10:25:51Z</time>
</trkpt>
<trkpt lat="54.837464" lon="25.445983">
<time>2022-05-17T10:25:52Z</time>
</trkpt>
<trkpt lat="54.837523" lon="25.446038">
<time>2022-05-17T10:25:53Z</time>
</trkpt>
<trkpt lat="54.837577" lon="25.446098">
<time>2022-05-17T10:25:54Z</time>
</trkpt>
<trkpt lat="54.837625" lon="25.446173">
<time>2022-05-17T10:25:55Z</time>
</trkpt>
<trkpt lat="54.837669" lon="25.446249">
<time>2022-05-17T10:25:56Z</time>
</trkpt>
<trkpt lat="54.837714" lon="25.446326">
<time>2022-05-17T10:25:57Z</time>
</trkpt>
<trkpt lat="54.83776" lon="25.446395">
<time>2022-05-17T10:25:58Z</time>
</trkpt>
<trkpt lat="54.837799" lon="25.446468">
<time>2022-05-17T10:25:59Z</time>
</trkpt>
<trkpt lat="54.837824" lon="25.44655">
<time>2022-05-17T10:26:00Z</time>
</trkpt>
<trkpt lat="54.837832" lon="25.446653">
<time>2022-05-17T10:26:01Z</time>
</trkpt>
<trkpt lat="54.837835" lon="25.446766">
<time>2022-05-17T10:26:02Z</time>
</trkpt>
<trkpt lat="54.83784" lon="25.446882">
<time>2022-05-17T10:26:03Z</time>
</trkpt>
<trkpt lat="54.837853" lon="25.446983">
<time>2022-05-17T10:26:04Z</time>
</trkpt>
<trkpt lat="54.837868" lon="25.447082">
<time>2022-05-17T10:26:05Z</time>
</trkpt>
<trkpt lat="54.837887" lon="25.447179">
<time>2022-05-17T10:26:06Z</time>
</trkpt>
<trkpt lat="54.837904" lon="25.44728">
<time>2022-05-17T10:26:07Z</time>
</trkpt>
<trkpt lat="54.837921" lon="25.447382">
<time>2022-05-17T10:26:08Z</time>
</trkpt>
<trkpt lat="54.837934" lon="25.447486">
<time>2022-05-17T10:26:09Z</time>
</trkpt>
<trkpt lat="54.837947" lon="25.447588">
<time>2022-05-17T10:26:10Z</time>
</trkpt>
<trkpt lat="54.837959" lon="25.44769">
<time>2022-05-17T10:26:11Z</time>
</trkpt>
<trkpt lat="54.837969" lon="25.447789">
<time>2022-05-17T10:26:12Z</time>
</trkpt>
<trkpt lat="54.837976" lon="25.447887">
<time>2022-05-17T10:26:13Z</time>
</trkpt>
<trkpt lat="54.837979" lon="25.447985">
<time>2022-05-17T10:26:14Z</time>
</trkpt>
<trkpt lat="54.837983" lon="25.448083">
<time>2022-05-17T10:26:15Z</time>
</trkpt>
<trkpt lat="54.837986" lon="25.448181">
<time>2022-05-17T10:26:16Z</time>
</trkpt>
<trkpt lat="54.837991" lon="25.44828">
<time>2022-05-17T10:26:17Z</time>
</trkpt>
<trkpt lat="54.837995" lon="25.448377">
<time>2022-05-17T10:26:18Z</time>
</trkpt>
<trkpt lat="54.837999" lon="25.44847">
<time>2022-05-17T10:26:19Z</time>
</trkpt>
<trkpt lat="54.838001" lon="25.448553">
<time>2022-05-17T10:26:20Z</time>
</trkpt>
<trkpt lat="54.838003" lon="25.448624">
<time>2022-05-17T10:26:21Z</time>
</trkpt>
<trkpt lat="54.838013" lon="25.44868">
<time>2022-05-17T10:26:22Z</time>
</trkpt>
<trkpt lat="54.838033" lon="25.448724">
<time>2022-05-17T10:26:23Z</time>
</trkpt>
<trkpt lat="54.838077" lon="25.448749">
<time>2022-05-17T10:26:24Z</time>
</trkpt>
<trkpt lat="54.838133" lon="25.448765">
<time>2022-05-17T10:26:25Z</time>
</trkpt>
<trkpt lat="54.838197" lon="25.448777">
<time>2022-05-17T10:26:26Z</time>
</trkpt>
<trkpt lat="54.838257" lon="25.448792">
<time>2022-05-17T10:26:27Z</time>
</trkpt>
<trkpt lat="54.838319" lon="25.448797">
<time>2022-05-17T10:26:28Z</time>
</trkpt>
<trkpt lat="54.838378" lon="25.448796">
<time>2022-05-17T10:26:29Z</time>
</trkpt>
<trkpt lat="54.838439" lon="25.448782">
<time>2022-05-17T10:26:30Z</time>
</trkpt>
<trkpt lat="54.838506" lon="25.44876">
<time>2022-05-17T10:26:31Z</time>
</trkpt>
<trkpt lat="54.838575" lon="25.448736">
<time>2022-05-17T10:26:32Z</time>
</trkpt>
<trkpt lat="54.838641" lon="25.448721">
<time>2022-05-17T10:26:33Z</time>
</trkpt>
<trkpt lat="54.8387" lon="25.448716">
<time>2022-05-17T10:26:34Z</time>
</trkpt>
<trkpt lat="54.838756" lon="25.448717">
<time>2022-05-17T10:26:35Z</time>
</trkpt>
<trkpt lat="54.838816" lon="25.448716">
<time>2022-05-17T10:26:36Z</time>
</trkpt>
<trkpt lat="54.838873" lon="25.448728">
<time>2022-05-17T10:26:37Z</time>
</trkpt>
<trkpt lat="54.838928" lon="25.448755">
<time>2022-05-17T10:26:38Z</time>
</trkpt>
<trkpt lat="54.83898" lon="25.4488">
<time>2022-05-17T10:26:39Z</time>
</trkpt>
<trkpt lat="54.83903" lon="25.448864">
<time>2022-05-17T10:26:40Z</time>
</trkpt>
<trkpt lat="54.83908" lon="25.448938">
<time>2022-05-17T10:26:41Z</time>
</trkpt>
<trkpt lat="54.839131" lon="25.449015">
<time>2022-05-17T10:26:42Z</time>
</trkpt>
<trkpt lat="54.839183" lon="25.449082">
<time>2022-05-17T10:26:43Z</time>
</trkpt>
<trkpt lat="54.839228" lon="25.449157">
<time>2022-05-17T10:26:44Z</time>
</trkpt>
<trkpt lat="54.839271" lon="25.449233">
<time>2022-05-17T10:26:45Z</time>
</trkpt>
<trkpt lat="54.83931" lon="25.449313">
<time>2022-05-17T10:26:46Z</time>
</trkpt>
<trkpt lat="54.839352" lon="25.449384">
<time>2022-05-17T10:26:47Z</time>
</trkpt>
<trkpt lat="54.83939" lon="25.449457">
<time>2022-05-17T10:26:48Z</time>
</trkpt>
<trkpt lat="54.839428" lon="25.449532">
<time>2022-05-17T10:26:49Z</time>
</trkpt>
<trkpt lat="54.839468" lon="25.449606">
<time>2022-05-17T10:26:50Z</time>
</trkpt>
<trkpt lat="54.839508" lon="25.449682">
<time>2022-05-17T10:26:51Z</time>
</trkpt>
<trkpt lat="54.839552" lon="25.449758">
<time>2022-05-17T10:26:52Z</time>
</trkpt>
<trkpt lat="54.839595" lon="25.449835">
<time>2022-05-17T10:26:53Z</time>
</trkpt>
<trkpt lat="54.83964" lon="25.449909">
<time>2022-05-17T10:26:54Z</time>
</trkpt>
<trkpt lat="54.83968" lon="25.449988">
<time>2022-05-17T10:26:55Z</time>
</trkpt>
<trkpt lat="54.83972" lon="25.450071">
<time>2022-05-17T10:26:56Z</time>
</trkpt>
<trkpt lat="54.839759" lon="25.450157">
<time>2022-05-17T10:26:57Z</time>
</trkpt>
<trkpt lat="54.839798" lon="25.45024">
<time>2022-05-17T10:26:58Z</time>
</trkpt>
<trkpt lat="54.839837" lon="25.450323">
<time>2022-05-17T10:26:59Z</time>
</trkpt>
<trkpt lat="54.839878" lon="25.450404">
<time>2022-05-17T10:27:00Z</time>
</trkpt>
<trkpt lat="54.839922" lon="25.45048">
<time>2022-05-17T10:27:01Z</time>
</trkpt>
<trkpt lat="54.839967" lon="25.450549">
<time>2022-05-17T10:27:02Z</time>
</trkpt>
<trkpt lat="54.840012" lon="25.450606">
<time>2022-05-17T10:27:03Z</time>
</trkpt>
<trkpt lat="54.840056" lon="25.450662">
<time>2022-05-17T10:27:04Z</time>
</trkpt>
<trkpt lat="54.840098" lon="25.450718">
<time>2022-05-17T10:27:05Z</time>
</trkpt>
<trkpt lat="54.840141" lon="25.450787">
<time>2022-05-17T10:27:06Z</time>
</trkpt>
<trkpt lat="54.840185" lon="25.450864">
<time>2022-05-17T10:27:07Z</time>
</trkpt>
<trkpt lat="54.84023" lon="25.450951">
<time>2022-05-17T10:27:08Z</time>
</trkpt>
<trkpt lat="54.840273" lon="25.451043">
<time>2022-05-17T10:27:09Z</time>
</trkpt>
<trkpt lat="54.840315" lon="25.451139">
<time>2022-05-17T10:27:10Z</time>
</trkpt>
<trkpt lat="54.840355" lon="25.451231">
<time>2022-05-17T10:27:11Z</time>
</trkpt>
<trkpt lat="54.840394" lon="25.451309">
<time>2022-05-17T10:27:12Z</time>
</trkpt>
<trkpt lat="54.84043" lon="25.451368">
<time>2022-05-17T10:27:13Z</time>
</trkpt>
<trkpt lat="54.840463" lon="25.451405">
<time>2022-05-17T10:27:14Z</time>
</trkpt>
<trkpt lat="54.840497" lon="25.451421">
<time>2022-05-17T10:27:15Z</time>
</trkpt>
<trkpt lat="54.840531" lon="25.451421">
<time>2022-05-17T10:27:16Z</time>
</trkpt>
<trkpt lat="54.840566" lon="25.451416">
<time>2022-05-17T10:27:17Z</time>
</trkpt>
<trkpt lat="54.840598" lon="25.451412">
<time>2022-05-17T10:27:18Z</time>
</trkpt>
<trkpt lat="54.840627" lon="25.451408">
<time>2022-05-17T10:27:19Z</time>
</trkpt>
<trkpt lat="54.840655" lon="25.451409">
<time>2022-05-17T10:27:20Z</time>
</trkpt>
<trkpt lat="54.840682" lon="25.451413">
<time>2022-05-17T10:27:21Z</time>
</trkpt>
<trkpt lat="54.84071" lon="25.451413">
<time>2022-05-17T10:27:22Z</time>
</trkpt>
<trkpt lat="54.840734" lon="25.451398">
<time>2022-05-17T10:27:23Z</time>
</trkpt>
<trkpt lat="54.840755" lon="25.451369">
<time>2022-05-17T10:27:24Z</time>
</trkpt>
<trkpt lat="54.840772" lon="25.451334">
<time>2022-05-17T10:27:25Z</time>
</trkpt>
<trkpt lat="54.840787" lon="25.451294">
<time>2022-05-17T10:27:26Z</time>
</trkpt>
<trkpt lat="54.840799" lon="25.451254">
<time>2022-05-17T10:27:27Z</time>
</trkpt>
<trkpt lat="54.84081" lon="25.451211">
<time>2022-05-17T10:27:28Z</time>
</trkpt>
<trkpt lat="54.84082" lon="25.45117">
<time>2022-05-17T10:27:29Z</time>
</trkpt>
<trkpt lat="54.840831" lon="25.451131">
<time>2022-05-17T10:27:30Z</time>
</trkpt>
<trkpt lat="54.840842" lon="25.451093">
<time>2022-05-17T10:27:31Z</time>
</trkpt>
<trkpt lat="54.840853" lon="25.451052">
<time>2022-05-17T10:27:32Z</time>
</trkpt>
<trkpt lat="54.840863" lon="25.451011">
<time>2022-05-17T10:27:33Z</time>
</trkpt>
<trkpt lat="54.840871" lon="25.45096">
<time>2022-05-17T10:27:34Z</time>
</trkpt>
<trkpt lat="54.84088" lon="25.450909">
<time>2022-05-17T10:27:35Z</time>
</trkpt>
<trkpt lat="54.840892" lon="25.450858">
<time>2022-05-17T10:27:36Z</time>
</trkpt>
<trkpt lat="54.840916" lon="25.450825">
<time>2022-05-17T10:27:37Z</time>
</trkpt>
<trkpt lat="54.840947" lon="25.450803">
<time>2022-05-17T10:27:38Z</time>
</trkpt>
<trkpt lat="54.840981" lon="25.450792">
<time>2022-05-17T10:27:39Z</time>
</trkpt>
<trkpt lat="54.84101" lon="25.45079">
<time>2022-05-17T10:27:40Z</time>
</trkpt>
<trkpt lat="54.841036" lon="25.450799">
<time>2022-05-17T10:27:41Z</time>
</trkpt>
<trkpt lat="54.841056" lon="25.450819">
<time>2022-05-17T10:27:42Z</time>
</trkpt>
<trkpt lat="54.841072" lon="25.450837">
<time>2022-05-17T10:27:43Z</time>
</trkpt>
<trkpt lat="54.841085" lon="25.450851">
<time>2022-05-17T10:27:44Z</time>
</trkpt>
<trkpt lat="54.841094" lon="25.450858">
<time>2022-05-17T10:27:45Z</time>
</trkpt>
<trkpt lat="54.841099" lon="25.450868">
<time>2022-05-17T10:27:46Z</time>
</trkpt>
<trkpt lat="54.841102" lon="25.450879">
<time>2022-05-17T10:27:47Z</time>
</trkpt>
<trkpt lat="54.841106" lon="25.450894">
<time>2022-05-17T10:27:48Z</time>
</trkpt>
<trkpt lat="54.841112" lon="25.450905">
<time>2022-05-17T10:27:49Z</time>
</trkpt>
<trkpt lat="54.841118" lon="25.450918">
<time>2022-05-17T10:27:50Z</time>
</trkpt>
<trkpt lat="54.841125" lon="25.450933">
<time>2022-05-17T10:27:51Z</time>
</trkpt>
<trkpt lat="54.841133" lon="25.450951">
<time>2022-05-17T10:27:52Z</time>
</trkpt>
<trkpt lat="54.841142" lon="25.450972">
<time>2022-05-17T10:27:53Z</time>
</trkpt>
<trkpt lat="54.841152" lon="25.450995">
<time>2022-05-17T10:27:54Z</time>
</trkpt>
<trkpt lat="54.841165" lon="25.451017">
<time>2022-05-17T10:27:55Z</time>
</trkpt>
<trkpt lat="54.84118" lon="25.451039">
<time>2022-05-17T10:27:56Z</time>
</trkpt>
<trkpt lat="54.841199" lon="25.451065">
<time>2022-05-17T10:27:57Z</time>
</trkpt>
<trkpt lat="54.841222" lon="25.451095">
<time>2022-05-17T10:27:58Z</time>
</trkpt>
<trkpt lat="54.841247" lon="25.451134">
<time>2022-05-17T10:27:59Z</time>
</trkpt>
<trkpt lat="54.841274" lon="25.451177">
<time>2022-05-17T10:28:00Z</time>
</trkpt>
<trkpt lat="54.841297" lon="25.45122">
<time>2022-05-17T10:28:01Z</time>
</trkpt>
<trkpt lat="54.841321" lon="25.451259">
<time>2022-05-17T10:28:02Z</time>
</trkpt>
<trkpt lat="54.841341" lon="25.451296">
<time>2022-05-17T10:28:03Z</time>
</trkpt>
<trkpt lat="54.841359" lon="25.451333">
<time>2022-05-17T10:28:04Z</time>
</trkpt>
<trkpt lat="54.841378" lon="25.451364">
<time>2022-05-17T10:28:05Z</time>
</trkpt>
<trkpt lat="54.841398" lon="25.451385">
<time>2022-05-17T10:28:06Z</time>
</trkpt>
<trkpt lat="54.84142" lon="25.451394">
<time>2022-05-17T10:28:07Z</time>
</trkpt>
<trkpt lat="54.841437" lon="25.451397">
<time>2022-05-17T10:28:08Z</time>
</trkpt>
<trkpt lat="54.841454" lon="25.451398">
<time>2022-05-17T10:28:09Z</time>
</trkpt>
<trkpt lat="54.841472" lon="25.451397">
<time>2022-05-17T10:28:10Z</time>
</trkpt>
<trkpt lat="54.841495" lon="25.451386">
<time>2022-05-17T10:28:11Z</time>
</trkpt>
<trkpt lat="54.841523" lon="25.451364">
<time>2022-05-17T10:28:12Z</time>
</trkpt>
<trkpt lat="54.841554" lon="25.451338">
<time>2022-05-17T10:28:13Z</time>
</trkpt>
<trkpt lat="54.84159" lon="25.451306">
<time>2022-05-17T10:28:14Z</time>
</trkpt>
<trkpt lat="54.841626" lon="25.451275">
<time>2022-05-17T10:28:15Z</time>
</trkpt>
<trkpt lat="54.841664" lon="25.45124">
<time>2022-05-17T10:28:16Z</time>
</trkpt>
<trkpt lat="54.8417" lon="25.451211">
<time>2022-05-17T10:28:17Z</time>
</trkpt>
<trkpt lat="54.841737" lon="25.451179">
<time>2022-05-17T10:28:18Z</time>
</trkpt>
<trkpt lat="54.841774" lon="25.451146">
<time>2022-05-17T10:28:19Z</time>
</trkpt>
<trkpt lat="54.841814" lon="25.451107">
<time>2022-05-17T10:28:20Z</time>
</trkpt>
<trkpt lat="54.841854" lon="25.451078">
<time>2022-05-17T10:28:21Z</time>
</trkpt>
<trkpt lat="54.841892" lon="25.451055">
<time>2022-05-17T10:28:22Z</time>
</trkpt>
<trkpt lat="54.841934" lon="25.45104">
<time>2022-05-17T10:28:23Z</time>
</trkpt>
<trkpt lat="54.841984" lon="25.451027">
<time>2022-05-17T10:28:24Z</time>
</trkpt>
<trkpt lat="54.842036" lon="25.451021">
<time>2022-05-17T10:28:25Z</time>
</trkpt>
<trkpt lat="54.842088" lon="25.45102">
<time>2022-05-17T10:28:26Z</time>
</trkpt>
<trkpt lat="54.842135" lon="25.451024">
<time>2022-05-17T10:28:27Z</time>
</trkpt>
<trkpt lat="54.842178" lon="25.451029">
<time>2022-05-17T10:28:28Z</time>
</trkpt>
<trkpt lat="54.842218" lon="25.451038">
<time>2022-05-17T10:28:29Z</time>
</trkpt>
<trkpt lat="54.842256" lon="25.451038">
<time>2022-05-17T10:28:30Z</time>
</trkpt>
<trkpt lat="54.842296" lon="25.451031">
<time>2022-05-17T10:28:31Z</time>
</trkpt>
<trkpt lat="54.842338" lon="25.45102">
<time>2022-05-17T10:28:32Z</time>
</trkpt>
<trkpt lat="54.84238" lon="25.451011">
<time>2022-05-17T10:28:33Z</time>
</trkpt>
<trkpt lat="54.842419" lon="25.451004">
<time>2022-05-17T10:28:34Z</time>
</trkpt>
<trkpt lat="54.842459" lon="25.450989">
<time>2022-05-17T10:28:35Z</time>
</trkpt>
<trkpt lat="54.842498" lon="25.450967">
<time>2022-05-17T10:28:36Z</time>
</trkpt>
<trkpt lat="54.842543" lon="25.450932">
<time>2022-05-17T10:28:37Z</time>
</trkpt>
<trkpt lat="54.84259" lon="25.450892">
<time>2022-05-17T10:28:38Z</time>
</trkpt>
<trkpt lat="54.842635" lon="25.450854">
<time>2022-05-17T10:28:39Z</time>
</trkpt>
<trkpt lat="54.842678" lon="25.450816">
<time>2022-05-17T10:28:40Z</time>
</trkpt>
<trkpt lat="54.84272" lon="25.450769">
<time>2022-05-17T10:28:41Z</time>
</trkpt>
<trkpt lat="54.84277" lon="25.450698">
<time>2022-05-17T10:28:42Z</time>
</trkpt>
<trkpt lat="54.842826" lon="25.450618">
<time>2022-05-17T10:28:43Z</time>
</trkpt>
<trkpt lat="54.842881" lon="25.450542">
<time>2022-05-17T10:28:44Z</time>
</trkpt>
<trkpt lat="54.842935" lon="25.450468">
<time>2022-05-17T10:28:45Z</time>
</trkpt>
<trkpt lat="54.842988" lon="25.450392">
<time>2022-05-17T10:28:46Z</time>
</trkpt>
<trkpt lat="54.843046" lon="25.450312">
<time>2022-05-17T10:28:47Z</time>
</trkpt>
<trkpt lat="54.843105" lon="25.450245">
<time>2022-05-17T10:28:48Z</time>
</trkpt>
<trkpt lat="54.843163" lon="25.450188">
<time>2022-05-17T10:28:49Z</time>
</trkpt>
<trkpt lat="54.843217" lon="25.450139">
<time>2022-05-17T10:28:50Z</time>
</trkpt>
<trkpt lat="54.84327" lon="25.450101">
<time>2022-05-17T10:28:51Z</time>
</trkpt>
<trkpt lat="54.843325" lon="25.450074">
<time>2022-05-17T10:28:52Z</time>
</trkpt>
<trkpt lat="54.843377" lon="25.450073">
<time>2022-05-17T10:28:53Z</time>
</trkpt>
<trkpt lat="54.843425" lon="25.450109">
<time>2022-05-17T10:28:54Z</time>
</trkpt>
<trkpt lat="54.843459" lon="25.450174">
<time>2022-05-17T10:28:55Z</time>
</trkpt>
<trkpt lat="54.84348" lon="25.450257">
<time>2022-05-17T10:28:56Z</time>
</trkpt>
<trkpt lat="54.843492" lon="25.450337">
<time>2022-05-17T10:28:57Z</time>
</trkpt>
<trkpt lat="54.843494" lon="25.450436">
<time>2022-05-17T10:28:58Z</time>
</trkpt>
<trkpt lat="54.843496" lon="25.450538">
<time>2022-05-17T10:28:59Z</time>
</trkpt>
<trkpt lat="54.843497" lon="25.450648">
<time>2022-05-17T10:29:00Z</time>
</trkpt>
<trkpt lat="54.8435" lon="25.450755">
<time>2022-05-17T10:29:01Z</time>
</trkpt>
<trkpt lat="54.8435" lon="25.450876">
<time>2022-05-17T10:29:02Z</time>
</trkpt>
<trkpt lat="54.843498" lon="25.451003">
<time>2022-05-17T10:29:03Z</time>
</trkpt>
<trkpt lat="54.843502" lon="25.451134">
<time>2022-05-17T10:29:04Z</time>
</trkpt>
<trkpt lat="54.843512" lon="25.451265">
<time>2022-05-17T10:29:05Z</time>
</trkpt>
<trkpt lat="54.843526" lon="25.451396">
<time>2022-05-17T10:29:06Z</time>
</trkpt>
<trkpt lat="54.843542" lon="25.451525">
<time>2022-05-17T10:29:07Z</time>
</trkpt>
<trkpt lat="54.843559" lon="25.451655">
<time>2022-05-17T10:29:08Z</time>
</trkpt>
<trkpt lat="54.843579" lon="25.451786">
<time>2022-05-17T10:29:09Z</time>
</trkpt>
<trkpt lat="54.843602" lon="25.451916">
<time>2022-05-17T10:29:10Z</time>
</trkpt>
<trkpt lat="54.843625" lon="25.452039">
<time>2022-05-17T10:29:11Z</time>
</trkpt>
</trkseg>
<name>Luca Dallavalle </name>
</trk>
</gpx>